TAP226 KMIA-LPPT
Flight info
| Callsign | TAP226 |
|---|---|
| Flight time | N/A |
| Altitude | 35000 |
| Route | FOLZZ3 ZFP DCT BAAGR DCT GRATX/M081F350 M329 BALTN/M081F370 M329 LAZEY DCT 36N055W 38N050W 40N040W 41N030W/M081F390 41N020W DCT ERPES/N0457F390 DCT LAZET |
| Aircraft | A339/H-SADE1E2E3GHIJ3J5M1P2RWXY/LB2D1 |
Departure
| Time | 2026-05-06 12:45 |
|---|---|
| Airport | Miami International Airport (KMIA) |
Arrival
| Time | N/A |
|---|---|
| Airport | Lisbon Humberto Delgado Airport (LPPT) |
| Time | Latitude | Longitude | Altitude | Speed | Heading |
|---|---|---|---|---|---|
| 2026-05-06 12:18 | 25.79027 | -80.27293 | 22 ft | 0 kts | 315° |
| 2026-05-06 12:32 | 25.79024 | -80.27290 | 22 ft | 0 kts | 315° |
| 2026-05-06 12:32 | 25.79015 | -80.27279 | 22 ft | 2 kts | 298° |
| 2026-05-06 12:32 | 25.79010 | -80.27263 | 22 ft | 2 kts | 274° |
| 2026-05-06 12:33 | 25.79011 | -80.27247 | 22 ft | 2 kts | 253° |
| 2026-05-06 12:33 | 25.79017 | -80.27232 | 22 ft | 2 kts | 232° |
| 2026-05-06 12:33 | 25.79028 | -80.27221 | 22 ft | 2 kts | 211° |
| 2026-05-06 12:33 | 25.79041 | -80.27214 | 22 ft | 2 kts | 190° |
| 2026-05-06 12:34 | 25.79051 | -80.27213 | 22 ft | 0 kts | 177° |
| 2026-05-06 12:34 | 25.79055 | -80.27213 | 22 ft | 0 kts | 177° |
| 2026-05-06 12:36 | 25.79054 | -80.27213 | 22 ft | 0 kts | 177° |
| 2026-05-06 12:36 | 25.79042 | -80.27213 | 22 ft | 3 kts | 178° |
| 2026-05-06 12:36 | 25.79006 | -80.27219 | 22 ft | 7 kts | 199° |
| 2026-05-06 12:37 | 25.78957 | -80.27261 | 22 ft | 10 kts | 225° |
| 2026-05-06 12:37 | 25.78926 | -80.27343 | 22 ft | 13 kts | 264° |
| 2026-05-06 12:37 | 25.78917 | -80.27457 | 22 ft | 16 kts | 261° |
| 2026-05-06 12:37 | 25.78894 | -80.27587 | 22 ft | 18 kts | 258° |
| 2026-05-06 12:38 | 25.78878 | -80.27734 | 22 ft | 19 kts | 268° |
| 2026-05-06 12:38 | 25.78859 | -80.27881 | 22 ft | 18 kts | 270° |
| 2026-05-06 12:38 | 25.78906 | -80.28007 | 22 ft | 17 kts | 300° |
| 2026-05-06 12:38 | 25.78966 | -80.28125 | 22 ft | 17 kts | 299° |
| 2026-05-06 12:39 | 25.79026 | -80.28243 | 22 ft | 17 kts | 299° |
| 2026-05-06 12:39 | 25.79090 | -80.28368 | 22 ft | 19 kts | 299° |
| 2026-05-06 12:39 | 25.79168 | -80.28490 | 22 ft | 20 kts | 300° |
| 2026-05-06 12:39 | 25.79238 | -80.28627 | 22 ft | 20 kts | 300° |
| 2026-05-06 12:40 | 25.79306 | -80.28758 | 22 ft | 19 kts | 298° |
| 2026-05-06 12:40 | 25.79370 | -80.28888 | 22 ft | 18 kts | 299° |
| 2026-05-06 12:40 | 25.79435 | -80.29012 | 22 ft | 18 kts | 299° |
| 2026-05-06 12:40 | 25.79496 | -80.29134 | 22 ft | 17 kts | 300° |
| 2026-05-06 12:41 | 25.79559 | -80.29250 | 22 ft | 17 kts | 305° |
| 2026-05-06 12:41 | 25.79615 | -80.29368 | 22 ft | 17 kts | 296° |
| 2026-05-06 12:41 | 25.79673 | -80.29481 | 22 ft | 16 kts | 300° |
| 2026-05-06 12:41 | 25.79730 | -80.29592 | 22 ft | 16 kts | 299° |
| 2026-05-06 12:42 | 25.79787 | -80.29704 | 22 ft | 16 kts | 300° |
| 2026-05-06 12:42 | 25.79844 | -80.29815 | 22 ft | 16 kts | 300° |
| 2026-05-06 12:42 | 25.79902 | -80.29926 | 22 ft | 16 kts | 300° |
| 2026-05-06 12:42 | 25.79922 | -80.29964 | 22 ft | 16 kts | 300° |
| 2026-05-06 12:43 | 25.79957 | -80.30034 | 22 ft | 16 kts | 299° |
| 2026-05-06 12:43 | 25.80013 | -80.30119 | 22 ft | 8 kts | 339° |
| 2026-05-06 12:43 | 25.80062 | -80.30093 | 22 ft | 8 kts | 60° |
| 2026-05-06 12:44 | 25.80074 | -80.30026 | 22 ft | 9 kts | 86° |
| 2026-05-06 12:44 | 25.80075 | -80.30008 | 22 ft | 0 kts | 87° |
| 2026-05-06 12:44 | 25.80081 | -80.29884 | 22 ft | 44 kts | 87° |
| 2026-05-06 12:44 | 25.80105 | -80.29305 | 22 ft | 102 kts | 88° |
| 2026-05-06 12:45 | 25.80145 | -80.28333 | 22 ft | 150 kts | 87° |
| 2026-05-06 12:45 | 25.80200 | -80.27037 | 155 ft | 178 kts | 88° |
| 2026-05-06 12:45 | 25.79977 | -80.24304 | 1184 ft | 183 kts | 117° |
| 2026-05-06 12:46 | 25.79329 | -80.23116 | 1767 ft | 182 kts | 120° |
| 2026-05-06 12:46 | 25.78648 | -80.21892 | 2113 ft | 193 kts | 119° |
| 2026-05-06 12:46 | 25.77965 | -80.20561 | 2430 ft | 206 kts | 116° |
| 2026-05-06 12:46 | 25.77278 | -80.19095 | 2711 ft | 222 kts | 115° |
| 2026-05-06 12:47 | 25.76537 | -80.17518 | 3007 ft | 239 kts | 117° |
| 2026-05-06 12:47 | 25.75711 | -80.15836 | 3317 ft | 257 kts | 117° |
| 2026-05-06 12:47 | 25.74832 | -80.14058 | 3801 ft | 266 kts | 117° |
| 2026-05-06 12:47 | 25.74167 | -80.12154 | 4413 ft | 267 kts | 94° |
| 2026-05-06 12:48 | 25.74392 | -80.10149 | 5031 ft | 266 kts | 66° |
| 2026-05-06 12:48 | 25.75425 | -80.08435 | 5629 ft | 268 kts | 47° |
| 2026-05-06 12:48 | 25.76685 | -80.06884 | 6205 ft | 272 kts | 46° |
| 2026-05-06 12:48 | 25.77942 | -80.05328 | 6797 ft | 274 kts | 46° |
| 2026-05-06 12:49 | 25.79207 | -80.03748 | 7384 ft | 276 kts | 46° |
| 2026-05-06 12:49 | 25.80479 | -80.02149 | 7963 ft | 278 kts | 46° |
| 2026-05-06 12:49 | 25.81752 | -80.00542 | 8512 ft | 280 kts | 46° |
| 2026-05-06 12:49 | 25.83047 | -79.98904 | 9053 ft | 282 kts | 46° |
| 2026-05-06 12:50 | 25.84342 | -79.97262 | 9583 ft | 284 kts | 46° |
| 2026-05-06 12:50 | 25.85633 | -79.95623 | 10086 ft | 286 kts | 46° |
| 2026-05-06 12:50 | 25.86961 | -79.93940 | 10457 ft | 294 kts | 46° |
| 2026-05-06 12:50 | 25.88342 | -79.92188 | 10686 ft | 307 kts | 46° |
| 2026-05-06 12:51 | 25.89776 | -79.90366 | 10913 ft | 320 kts | 46° |
| 2026-05-06 12:51 | 25.91276 | -79.88460 | 11168 ft | 333 kts | 46° |
| 2026-05-06 12:51 | 25.92831 | -79.86481 | 11542 ft | 340 kts | 46° |
| 2026-05-06 12:51 | 25.94379 | -79.84504 | 12031 ft | 343 kts | 46° |
| 2026-05-06 12:52 | 25.95953 | -79.82494 | 12545 ft | 346 kts | 46° |
| 2026-05-06 12:52 | 25.97553 | -79.80442 | 13065 ft | 348 kts | 45° |
| 2026-05-06 12:52 | 25.99149 | -79.78414 | 13518 ft | 351 kts | 45° |
| 2026-05-06 12:52 | 26.00762 | -79.76360 | 13998 ft | 354 kts | 45° |
| 2026-05-06 12:53 | 26.02365 | -79.74316 | 14480 ft | 356 kts | 45° |
| 2026-05-06 12:53 | 26.04009 | -79.72216 | 14973 ft | 358 kts | 45° |
| 2026-05-06 12:53 | 26.05640 | -79.70129 | 15457 ft | 360 kts | 45° |
| 2026-05-06 12:53 | 26.07283 | -79.68029 | 15929 ft | 361 kts | 45° |
| 2026-05-06 12:54 | 26.08920 | -79.65934 | 16374 ft | 364 kts | 45° |
| 2026-05-06 12:54 | 26.10552 | -79.63763 | 16813 ft | 368 kts | 47° |
| 2026-05-06 12:54 | 26.12094 | -79.61443 | 17270 ft | 371 kts | 50° |
| 2026-05-06 12:54 | 26.13601 | -79.59081 | 17708 ft | 374 kts | 50° |
| 2026-05-06 12:55 | 26.15090 | -79.56733 | 18136 ft | 376 kts | 50° |
| 2026-05-06 12:55 | 26.16623 | -79.54317 | 18547 ft | 380 kts | 50° |
| 2026-05-06 12:55 | 26.18161 | -79.51892 | 18949 ft | 383 kts | 50° |
| 2026-05-06 12:55 | 26.19696 | -79.49467 | 19345 ft | 387 kts | 50° |
| 2026-05-06 12:56 | 26.21250 | -79.47011 | 19756 ft | 389 kts | 50° |
| 2026-05-06 12:56 | 26.22814 | -79.44543 | 20149 ft | 392 kts | 50° |
| 2026-05-06 12:56 | 26.24376 | -79.42075 | 20519 ft | 396 kts | 50° |
| 2026-05-06 12:56 | 26.25965 | -79.39564 | 20909 ft | 398 kts | 50° |
| 2026-05-06 12:57 | 26.27568 | -79.36965 | 21342 ft | 400 kts | 52° |
| 2026-05-06 12:57 | 26.29007 | -79.34297 | 21728 ft | 404 kts | 56° |
| 2026-05-06 12:57 | 26.30289 | -79.31506 | 22062 ft | 410 kts | 60° |
| 2026-05-06 12:57 | 26.31480 | -79.28587 | 22383 ft | 413 kts | 61° |
| 2026-05-06 12:58 | 26.32655 | -79.25645 | 22742 ft | 416 kts | 62° |
| 2026-05-06 12:58 | 26.33836 | -79.22675 | 23123 ft | 418 kts | 62° |
| 2026-05-06 12:58 | 26.35009 | -79.19734 | 23473 ft | 420 kts | 61° |
| 2026-05-06 12:58 | 26.36204 | -79.16741 | 23828 ft | 422 kts | 61° |
| 2026-05-06 12:59 | 26.37386 | -79.13783 | 24187 ft | 424 kts | 60° |
| 2026-05-06 12:59 | 26.38592 | -79.10770 | 24524 ft | 427 kts | 61° |
| 2026-05-06 12:59 | 26.39804 | -79.07742 | 24876 ft | 429 kts | 60° |
| 2026-05-06 12:59 | 26.41020 | -79.04700 | 25222 ft | 431 kts | 60° |
| 2026-05-06 13:00 | 26.42226 | -79.01679 | 25557 ft | 433 kts | 60° |
| 2026-05-06 13:00 | 26.43464 | -78.98568 | 25892 ft | 435 kts | 60° |
| 2026-05-06 13:00 | 26.44687 | -78.95501 | 26230 ft | 437 kts | 60° |
| 2026-05-06 13:00 | 26.45912 | -78.92427 | 26570 ft | 439 kts | 60° |
| 2026-05-06 13:01 | 26.47159 | -78.89295 | 26900 ft | 441 kts | 60° |
| 2026-05-06 13:01 | 26.48409 | -78.86151 | 27220 ft | 443 kts | 60° |
| 2026-05-06 13:01 | 26.49647 | -78.83038 | 27556 ft | 444 kts | 60° |
| 2026-05-06 13:01 | 26.50838 | -78.79813 | 27881 ft | 449 kts | 64° |
| 2026-05-06 13:02 | 26.51790 | -78.76485 | 28188 ft | 455 kts | 69° |
| 2026-05-06 13:02 | 26.52487 | -78.73056 | 28484 ft | 461 kts | 74° |
| 2026-05-06 13:02 | 26.53017 | -78.69492 | 28783 ft | 464 kts | 75° |
| 2026-05-06 13:02 | 26.53504 | -78.65952 | 29052 ft | 467 kts | 75° |
| 2026-05-06 13:03 | 26.53990 | -78.62389 | 29332 ft | 469 kts | 75° |
| 2026-05-06 13:03 | 26.54479 | -78.58804 | 29610 ft | 470 kts | 75° |
| 2026-05-06 13:03 | 26.54975 | -78.55196 | 29885 ft | 472 kts | 75° |
| 2026-05-06 13:03 | 26.55473 | -78.51592 | 30168 ft | 473 kts | 75° |
| 2026-05-06 13:04 | 26.55975 | -78.47957 | 30424 ft | 475 kts | 75° |
| 2026-05-06 13:04 | 26.56462 | -78.44312 | 30696 ft | 477 kts | 75° |
| 2026-05-06 13:04 | 26.56954 | -78.40659 | 30961 ft | 477 kts | 74° |
| 2026-05-06 13:04 | 26.57466 | -78.37000 | 31188 ft | 479 kts | 75° |
| 2026-05-06 13:05 | 26.57994 | -78.33270 | 31410 ft | 481 kts | 75° |
| 2026-05-06 13:05 | 26.58511 | -78.29582 | 31636 ft | 483 kts | 75° |
| 2026-05-06 13:05 | 26.59029 | -78.25851 | 31855 ft | 485 kts | 75° |
| 2026-05-06 13:05 | 26.59539 | -78.22160 | 32059 ft | 487 kts | 75° |
| 2026-05-06 13:06 | 26.60056 | -78.18401 | 32265 ft | 488 kts | 75° |
| 2026-05-06 13:06 | 26.60569 | -78.14652 | 32525 ft | 489 kts | 75° |
| 2026-05-06 13:06 | 26.61073 | -78.10946 | 32799 ft | 489 kts | 75° |
| 2026-05-06 13:06 | 26.61583 | -78.07189 | 33121 ft | 487 kts | 75° |
| 2026-05-06 13:07 | 26.62085 | -78.03481 | 33468 ft | 486 kts | 75° |
| 2026-05-06 13:07 | 26.62587 | -77.99765 | 33776 ft | 485 kts | 75° |
| 2026-05-06 13:07 | 26.63087 | -77.96061 | 34060 ft | 485 kts | 75° |
| 2026-05-06 13:07 | 26.63588 | -77.92348 | 34323 ft | 485 kts | 75° |
| 2026-05-06 13:08 | 26.64088 | -77.88640 | 34561 ft | 485 kts | 75° |
| 2026-05-06 13:08 | 26.64591 | -77.84892 | 34863 ft | 484 kts | 75° |
| 2026-05-06 13:08 | 26.65088 | -77.81179 | 35151 ft | 483 kts | 75° |
| 2026-05-06 13:08 | 26.65576 | -77.77518 | 35391 ft | 483 kts | 74° |
| 2026-05-06 13:09 | 26.66072 | -77.73807 | 35597 ft | 483 kts | 74° |
| 2026-05-06 13:09 | 26.66568 | -77.70093 | 35748 ft | 485 kts | 75° |
| 2026-05-06 13:09 | 26.67062 | -77.66388 | 35912 ft | 486 kts | 74° |
| 2026-05-06 13:09 | 26.67558 | -77.62651 | 36107 ft | 486 kts | 74° |
| 2026-05-06 13:10 | 26.68052 | -77.58923 | 36282 ft | 487 kts | 74° |
| 2026-05-06 13:10 | 26.68544 | -77.55196 | 36431 ft | 488 kts | 74° |
| 2026-05-06 13:10 | 26.69040 | -77.51437 | 36578 ft | 489 kts | 74° |
| 2026-05-06 13:10 | 26.69534 | -77.47689 | 36705 ft | 490 kts | 74° |
| 2026-05-06 13:11 | 26.70034 | -77.43894 | 36859 ft | 491 kts | 74° |
| 2026-05-06 13:11 | 26.70524 | -77.40147 | 37019 ft | 492 kts | 74° |
| 2026-05-06 13:11 | 26.71016 | -77.36388 | 37067 ft | 493 kts | 74° |
| 2026-05-06 13:12 | 26.72002 | -77.28835 | 37071 ft | 494 kts | 75° |
| 2026-05-06 13:12 | 26.72991 | -77.21217 | 37073 ft | 494 kts | 75° |
| 2026-05-06 13:13 | 26.73965 | -77.13672 | 37066 ft | 494 kts | 75° |
| 2026-05-06 13:13 | 26.74942 | -77.06081 | 37063 ft | 493 kts | 74° |
| 2026-05-06 13:14 | 26.75911 | -76.98527 | 37069 ft | 493 kts | 75° |
| 2026-05-06 13:14 | 26.76876 | -76.90951 | 37074 ft | 494 kts | 74° |
| 2026-05-06 13:15 | 26.77838 | -76.83370 | 37074 ft | 493 kts | 74° |
| 2026-05-06 13:15 | 26.78795 | -76.75803 | 37074 ft | 494 kts | 74° |
| 2026-05-06 13:16 | 26.79751 | -76.68224 | 37073 ft | 494 kts | 74° |
| 2026-05-06 13:16 | 26.80704 | -76.60603 | 37075 ft | 493 kts | 74° |
| 2026-05-06 13:17 | 26.81625 | -76.53030 | 37074 ft | 494 kts | 76° |
| 2026-05-06 13:17 | 26.82120 | -76.45372 | 37073 ft | 497 kts | 79° |
| 2026-05-06 13:18 | 26.82488 | -76.37646 | 37074 ft | 497 kts | 79° |
| 2026-05-06 13:18 | 26.82853 | -76.29962 | 37070 ft | 498 kts | 79° |
| 2026-05-06 13:19 | 26.83221 | -76.22234 | 37072 ft | 497 kts | 79° |
| 2026-05-06 13:19 | 26.83585 | -76.14523 | 37071 ft | 496 kts | 79° |
| 2026-05-06 13:20 | 26.83947 | -76.06837 | 37071 ft | 496 kts | 79° |
| 2026-05-06 13:20 | 26.84307 | -75.99138 | 37072 ft | 498 kts | 79° |
| 2026-05-06 13:21 | 26.84660 | -75.91429 | 37071 ft | 498 kts | 79° |
| 2026-05-06 13:21 | 26.85006 | -75.83727 | 37074 ft | 497 kts | 78° |
| 2026-05-06 13:22 | 26.85351 | -75.76020 | 37078 ft | 496 kts | 79° |
| 2026-05-06 13:22 | 26.85693 | -75.68334 | 37081 ft | 495 kts | 78° |
| 2026-05-06 13:23 | 26.86029 | -75.60664 | 37084 ft | 495 kts | 78° |
| 2026-05-06 13:23 | 26.86361 | -75.53002 | 37083 ft | 496 kts | 78° |
| 2026-05-06 13:24 | 26.86689 | -75.45287 | 37088 ft | 496 kts | 78° |
| 2026-05-06 13:24 | 26.87012 | -75.37616 | 37089 ft | 495 kts | 78° |
| 2026-05-06 13:25 | 26.87328 | -75.29960 | 37090 ft | 494 kts | 79° |
| 2026-05-06 13:25 | 26.87647 | -75.22238 | 37091 ft | 496 kts | 78° |
| 2026-05-06 13:26 | 26.87956 | -75.14580 | 37099 ft | 495 kts | 78° |
| 2026-05-06 13:26 | 26.88264 | -75.06900 | 37100 ft | 495 kts | 78° |
| 2026-05-06 13:27 | 26.88568 | -74.99198 | 37105 ft | 497 kts | 78° |
| 2026-05-06 13:27 | 26.88863 | -74.91540 | 37108 ft | 495 kts | 78° |
| 2026-05-06 13:28 | 26.89157 | -74.83868 | 37106 ft | 496 kts | 78° |
| 2026-05-06 13:28 | 26.89448 | -74.76151 | 37108 ft | 494 kts | 78° |
| 2026-05-06 13:29 | 26.89735 | -74.68497 | 37108 ft | 494 kts | 78° |
| 2026-05-06 13:29 | 26.90014 | -74.60848 | 37107 ft | 493 kts | 78° |
| 2026-05-06 13:30 | 26.90288 | -74.53210 | 37109 ft | 493 kts | 78° |
| 2026-05-06 13:30 | 26.90563 | -74.45512 | 37109 ft | 494 kts | 78° |
| 2026-05-06 13:31 | 26.90926 | -74.37901 | 37110 ft | 487 kts | 73° |
| 2026-05-06 13:31 | 26.92247 | -74.30633 | 37109 ft | 473 kts | 63° |
| 2026-05-06 13:32 | 26.94670 | -74.23892 | 37110 ft | 459 kts | 52° |
| 2026-05-06 13:32 | 26.97947 | -74.17903 | 37111 ft | 450 kts | 46° |
| 2026-05-06 13:33 | 27.01474 | -74.12147 | 37110 ft | 448 kts | 45° |
| 2026-05-06 13:33 | 27.05001 | -74.06382 | 37110 ft | 447 kts | 45° |
| 2026-05-06 13:34 | 27.08510 | -74.00616 | 37111 ft | 449 kts | 45° |
| 2026-05-06 13:34 | 27.12022 | -73.94833 | 37115 ft | 448 kts | 45° |
| 2026-05-06 13:35 | 27.15499 | -73.89095 | 37112 ft | 449 kts | 46° |
| 2026-05-06 13:35 | 27.19016 | -73.83283 | 37111 ft | 448 kts | 46° |
| 2026-05-06 13:36 | 27.22513 | -73.77495 | 37112 ft | 451 kts | 46° |
| 2026-05-06 13:36 | 27.26010 | -73.71699 | 37113 ft | 451 kts | 46° |
| 2026-05-06 13:37 | 27.29514 | -73.65882 | 37114 ft | 451 kts | 46° |
| 2026-05-06 13:37 | 27.33037 | -73.60027 | 37114 ft | 451 kts | 46° |
| 2026-05-06 13:38 | 27.36543 | -73.54192 | 37115 ft | 452 kts | 46° |
| 2026-05-06 13:38 | 27.40067 | -73.48324 | 37114 ft | 453 kts | 46° |
| 2026-05-06 13:39 | 27.43560 | -73.42490 | 37117 ft | 452 kts | 46° |
| 2026-05-06 13:39 | 27.47077 | -73.36613 | 37118 ft | 452 kts | 46° |
| 2026-05-06 13:40 | 27.51157 | -73.29790 | 37119 ft | 454 kts | 46° |
| 2026-05-06 13:40 | 27.54083 | -73.24888 | 37120 ft | 454 kts | 46° |
| 2026-05-06 13:41 | 27.57587 | -73.19012 | 37119 ft | 454 kts | 46° |
| 2026-05-06 13:41 | 27.61102 | -73.13103 | 37122 ft | 454 kts | 46° |
| 2026-05-06 13:42 | 27.64602 | -73.07216 | 37124 ft | 453 kts | 46° |
| 2026-05-06 13:42 | 27.68104 | -73.01322 | 37125 ft | 454 kts | 46° |
| 2026-05-06 13:43 | 27.71622 | -72.95385 | 37128 ft | 455 kts | 46° |
| 2026-05-06 13:43 | 27.75116 | -72.89483 | 37128 ft | 454 kts | 46° |
| 2026-05-06 13:44 | 27.78617 | -72.83563 | 37124 ft | 454 kts | 47° |
| 2026-05-06 13:44 | 27.82109 | -72.77650 | 37127 ft | 453 kts | 47° |
| 2026-05-06 13:45 | 27.85591 | -72.71744 | 37134 ft | 454 kts | 46° |
| 2026-05-06 13:45 | 27.90838 | -72.62830 | 37136 ft | 453 kts | 47° |
| 2026-05-06 13:46 | 27.94313 | -72.56916 | 37140 ft | 454 kts | 46° |
| 2026-05-06 13:46 | 27.97792 | -72.50990 | 37141 ft | 454 kts | 46° |
| 2026-05-06 13:47 | 28.01291 | -72.45017 | 37146 ft | 456 kts | 46° |
| 2026-05-06 13:47 | 28.04776 | -72.39062 | 37146 ft | 455 kts | 47° |
| 2026-05-06 13:48 | 28.08249 | -72.33119 | 37147 ft | 456 kts | 47° |
| 2026-05-06 13:48 | 28.11756 | -72.27110 | 37152 ft | 455 kts | 47° |
| 2026-05-06 13:49 | 28.15214 | -72.21175 | 37154 ft | 456 kts | 47° |
| 2026-05-06 13:49 | 28.18703 | -72.15180 | 37157 ft | 457 kts | 47° |
| 2026-05-06 13:50 | 28.22192 | -72.09173 | 37153 ft | 456 kts | 47° |
| 2026-05-06 13:50 | 28.25668 | -72.03178 | 37154 ft | 455 kts | 47° |
| 2026-05-06 13:51 | 28.29142 | -71.97180 | 37152 ft | 455 kts | 47° |
| 2026-05-06 13:51 | 28.32605 | -71.91186 | 37153 ft | 457 kts | 47° |
| 2026-05-06 13:52 | 28.36008 | -71.85157 | 37153 ft | 457 kts | 48° |
| 2026-05-06 13:52 | 28.39434 | -71.79040 | 37154 ft | 459 kts | 48° |
| 2026-05-06 13:53 | 28.42838 | -71.72956 | 37152 ft | 458 kts | 48° |
| 2026-05-06 13:53 | 28.46237 | -71.66882 | 37154 ft | 458 kts | 48° |
| 2026-05-06 13:54 | 28.49653 | -71.60767 | 37153 ft | 458 kts | 48° |
| 2026-05-06 13:54 | 28.53067 | -71.54649 | 37153 ft | 458 kts | 48° |
| 2026-05-06 13:55 | 28.56441 | -71.48589 | 37155 ft | 458 kts | 48° |
| 2026-05-06 13:55 | 28.59865 | -71.42436 | 37153 ft | 458 kts | 48° |
| 2026-05-06 13:56 | 28.63260 | -71.36323 | 37160 ft | 459 kts | 48° |
| 2026-05-06 13:56 | 28.66662 | -71.30190 | 37160 ft | 461 kts | 49° |
| 2026-05-06 13:57 | 28.70077 | -71.24023 | 37166 ft | 461 kts | 49° |
| 2026-05-06 13:57 | 28.73478 | -71.17872 | 37166 ft | 462 kts | 49° |
| 2026-05-06 13:58 | 28.76892 | -71.11685 | 37167 ft | 462 kts | 49° |
| 2026-05-06 13:58 | 28.80311 | -71.05476 | 37169 ft | 462 kts | 49° |
| 2026-05-06 13:59 | 28.83710 | -70.99301 | 37169 ft | 462 kts | 49° |
| 2026-05-06 13:59 | 28.87148 | -70.93134 | 37170 ft | 460 kts | 48° |
| 2026-05-06 14:00 | 28.90616 | -70.87066 | 37173 ft | 461 kts | 48° |
| 2026-05-06 14:00 | 28.94098 | -70.80959 | 37174 ft | 461 kts | 48° |
| 2026-05-06 14:01 | 28.97582 | -70.74829 | 37173 ft | 461 kts | 48° |
| 2026-05-06 14:01 | 29.01063 | -70.68687 | 37173 ft | 460 kts | 48° |
| 2026-05-06 14:02 | 29.04524 | -70.62569 | 37174 ft | 461 kts | 48° |
| 2026-05-06 14:02 | 29.07999 | -70.56413 | 37174 ft | 460 kts | 48° |
| 2026-05-06 14:03 | 29.11448 | -70.50296 | 37176 ft | 461 kts | 48° |
| 2026-05-06 14:03 | 29.14925 | -70.44124 | 37173 ft | 461 kts | 48° |
| 2026-05-06 14:04 | 29.18390 | -70.37960 | 37174 ft | 461 kts | 48° |
| 2026-05-06 14:04 | 29.21852 | -70.31792 | 37173 ft | 461 kts | 48° |
| 2026-05-06 14:05 | 29.25293 | -70.25658 | 37173 ft | 461 kts | 49° |
| 2026-05-06 14:05 | 29.28765 | -70.19453 | 37174 ft | 461 kts | 49° |
| 2026-05-06 14:06 | 29.32201 | -70.13306 | 37173 ft | 462 kts | 49° |
| 2026-05-06 14:06 | 29.35656 | -70.07111 | 37174 ft | 461 kts | 49° |
| 2026-05-06 14:07 | 29.39098 | -70.00938 | 37173 ft | 462 kts | 48° |
| 2026-05-06 14:07 | 29.42557 | -69.94720 | 37173 ft | 461 kts | 49° |
| 2026-05-06 14:08 | 29.45990 | -69.88541 | 37173 ft | 461 kts | 48° |
| 2026-05-06 14:08 | 29.49985 | -69.81337 | 37173 ft | 462 kts | 48° |
| 2026-05-06 14:09 | 29.52846 | -69.76173 | 37174 ft | 462 kts | 49° |
| 2026-05-06 14:09 | 29.56859 | -69.68913 | 37174 ft | 462 kts | 49° |
| 2026-05-06 14:10 | 29.59720 | -69.63733 | 37174 ft | 462 kts | 48° |
| 2026-05-06 14:10 | 29.63733 | -69.56455 | 37173 ft | 461 kts | 49° |
| 2026-05-06 14:11 | 29.66575 | -69.51288 | 37173 ft | 460 kts | 48° |
| 2026-05-06 14:11 | 29.70549 | -69.44062 | 37173 ft | 460 kts | 49° |
| 2026-05-06 14:12 | 29.73382 | -69.38897 | 37176 ft | 461 kts | 49° |
| 2026-05-06 14:12 | 29.76807 | -69.32646 | 37175 ft | 460 kts | 49° |
| 2026-05-06 14:13 | 29.80209 | -69.26431 | 37177 ft | 461 kts | 49° |
| 2026-05-06 14:13 | 29.84172 | -69.19179 | 37175 ft | 462 kts | 49° |
| 2026-05-06 14:14 | 29.87033 | -69.13929 | 37175 ft | 462 kts | 49° |
| 2026-05-06 14:14 | 29.90996 | -69.06650 | 37174 ft | 462 kts | 49° |
| 2026-05-06 14:15 | 29.93852 | -69.01399 | 37173 ft | 462 kts | 49° |
| 2026-05-06 14:15 | 29.97248 | -68.95148 | 37172 ft | 463 kts | 49° |
| 2026-05-06 14:16 | 30.01223 | -68.87813 | 37172 ft | 463 kts | 49° |
| 2026-05-06 14:16 | 30.04643 | -68.81491 | 37174 ft | 464 kts | 49° |
| 2026-05-06 14:17 | 30.08038 | -68.75207 | 37172 ft | 463 kts | 49° |
| 2026-05-06 14:17 | 30.11434 | -68.68911 | 37178 ft | 464 kts | 49° |
| 2026-05-06 14:18 | 30.14836 | -68.62593 | 37177 ft | 463 kts | 49° |
| 2026-05-06 14:18 | 30.18209 | -68.56319 | 37176 ft | 462 kts | 49° |
| 2026-05-06 14:19 | 30.21598 | -68.50005 | 37177 ft | 462 kts | 50° |
| 2026-05-06 14:19 | 30.24975 | -68.43707 | 37181 ft | 463 kts | 50° |
| 2026-05-06 14:20 | 30.28354 | -68.37393 | 37180 ft | 463 kts | 50° |
| 2026-05-06 14:20 | 30.31736 | -68.31065 | 37177 ft | 464 kts | 50° |
| 2026-05-06 14:21 | 30.35105 | -68.24747 | 37180 ft | 463 kts | 50° |
| 2026-05-06 14:21 | 30.38494 | -68.18385 | 37179 ft | 464 kts | 50° |
| 2026-05-06 14:22 | 30.41857 | -68.12062 | 37180 ft | 464 kts | 50° |
| 2026-05-06 14:22 | 30.45235 | -68.05698 | 37182 ft | 464 kts | 50° |
| 2026-05-06 14:23 | 30.48594 | -67.99358 | 37178 ft | 464 kts | 50° |
| 2026-05-06 14:23 | 30.51979 | -67.92960 | 37173 ft | 464 kts | 50° |
| 2026-05-06 14:24 | 30.55335 | -67.86607 | 37178 ft | 464 kts | 50° |
| 2026-05-06 14:24 | 30.58702 | -67.80222 | 37180 ft | 464 kts | 50° |
| 2026-05-06 14:25 | 30.62065 | -67.73832 | 37179 ft | 465 kts | 50° |
| 2026-05-06 14:25 | 30.65407 | -67.67471 | 37178 ft | 464 kts | 50° |
| 2026-05-06 14:26 | 30.68775 | -67.61081 | 37183 ft | 463 kts | 49° |
| 2026-05-06 14:26 | 30.72387 | -67.54911 | 37185 ft | 461 kts | 47° |
| 2026-05-06 14:27 | 30.76021 | -67.48817 | 37187 ft | 461 kts | 47° |
| 2026-05-06 14:27 | 30.79658 | -67.42703 | 37188 ft | 461 kts | 47° |
| 2026-05-06 14:28 | 30.83293 | -67.36574 | 37190 ft | 462 kts | 47° |
| 2026-05-06 14:28 | 30.86937 | -67.30418 | 37192 ft | 462 kts | 47° |
| 2026-05-06 14:29 | 30.90586 | -67.24242 | 37192 ft | 463 kts | 47° |
| 2026-05-06 14:29 | 30.94209 | -67.18100 | 37187 ft | 463 kts | 47° |
| 2026-05-06 14:30 | 30.97842 | -67.11927 | 37177 ft | 463 kts | 47° |
| 2026-05-06 14:30 | 31.01469 | -67.05759 | 37174 ft | 463 kts | 47° |
| 2026-05-06 14:31 | 31.05093 | -66.99583 | 37172 ft | 463 kts | 47° |
| 2026-05-06 14:31 | 31.08725 | -66.93389 | 37170 ft | 464 kts | 47° |
| 2026-05-06 14:32 | 31.12358 | -66.87189 | 37173 ft | 463 kts | 47° |
| 2026-05-06 14:32 | 31.15989 | -66.80984 | 37168 ft | 464 kts | 47° |
| 2026-05-06 14:33 | 31.19613 | -66.74777 | 37170 ft | 464 kts | 48° |
| 2026-05-06 14:33 | 31.23237 | -66.68559 | 37167 ft | 464 kts | 48° |
| 2026-05-06 14:34 | 31.26836 | -66.62366 | 37165 ft | 464 kts | 48° |
| 2026-05-06 14:34 | 31.30464 | -66.56119 | 37169 ft | 464 kts | 48° |
| 2026-05-06 14:35 | 31.34070 | -66.49899 | 37168 ft | 465 kts | 48° |
| 2026-05-06 14:35 | 31.37685 | -66.43654 | 37170 ft | 465 kts | 48° |
| 2026-05-06 14:36 | 31.41300 | -66.37397 | 37168 ft | 465 kts | 48° |
| 2026-05-06 14:36 | 31.44917 | -66.31126 | 37168 ft | 466 kts | 49° |
| 2026-05-06 14:37 | 31.48538 | -66.24841 | 37172 ft | 467 kts | 49° |
| 2026-05-06 14:37 | 31.52157 | -66.18544 | 37169 ft | 466 kts | 49° |
| 2026-05-06 14:38 | 31.55754 | -66.12278 | 37166 ft | 467 kts | 49° |
| 2026-05-06 14:38 | 31.59376 | -66.05959 | 37171 ft | 468 kts | 49° |
| 2026-05-06 14:39 | 31.62992 | -65.99630 | 37173 ft | 466 kts | 49° |
| 2026-05-06 14:39 | 31.66582 | -65.93344 | 37172 ft | 465 kts | 49° |
| 2026-05-06 14:40 | 31.70182 | -65.87042 | 37170 ft | 466 kts | 49° |
| 2026-05-06 14:40 | 31.73773 | -65.80746 | 37170 ft | 466 kts | 49° |
| 2026-05-06 14:41 | 31.77370 | -65.74421 | 37167 ft | 466 kts | 49° |
| 2026-05-06 14:41 | 31.80958 | -65.68100 | 37164 ft | 466 kts | 49° |
| 2026-05-06 14:42 | 31.84548 | -65.61764 | 37166 ft | 466 kts | 49° |
| 2026-05-06 14:42 | 31.88109 | -65.55470 | 37165 ft | 466 kts | 49° |
| 2026-05-06 14:43 | 31.91694 | -65.49122 | 37159 ft | 466 kts | 49° |
| 2026-05-06 14:43 | 31.95264 | -65.42790 | 37160 ft | 466 kts | 49° |
| 2026-05-06 14:44 | 31.98830 | -65.36454 | 37159 ft | 465 kts | 49° |
| 2026-05-06 14:45 | 32.04161 | -65.26963 | 37155 ft | 464 kts | 50° |
| 2026-05-06 14:45 | 32.07720 | -65.20616 | 37156 ft | 465 kts | 50° |
| 2026-05-06 14:46 | 32.11268 | -65.14273 | 37153 ft | 465 kts | 50° |
| 2026-05-06 14:46 | 32.14814 | -65.07928 | 37152 ft | 464 kts | 50° |
| 2026-05-06 14:47 | 32.18359 | -65.01570 | 37150 ft | 464 kts | 50° |
| 2026-05-06 14:47 | 32.21892 | -64.95222 | 37150 ft | 465 kts | 50° |
| 2026-05-06 14:48 | 32.25436 | -64.88843 | 37149 ft | 466 kts | 50° |
| 2026-05-06 14:48 | 32.28987 | -64.82445 | 37148 ft | 467 kts | 50° |
| 2026-05-06 14:49 | 32.32548 | -64.76014 | 37148 ft | 469 kts | 50° |
| 2026-05-06 14:49 | 32.36044 | -64.69482 | 37146 ft | 473 kts | 54° |
| 2026-05-06 14:50 | 32.39031 | -64.62578 | 37147 ft | 477 kts | 59° |
| 2026-05-06 14:50 | 32.41860 | -64.55476 | 37146 ft | 477 kts | 59° |
| 2026-05-06 14:51 | 32.44676 | -64.48373 | 37144 ft | 478 kts | 59° |
| 2026-05-06 14:51 | 32.47482 | -64.41307 | 37141 ft | 479 kts | 59° |
| 2026-05-06 14:52 | 32.50315 | -64.34168 | 37133 ft | 479 kts | 60° |
| 2026-05-06 14:52 | 32.53144 | -64.27021 | 37129 ft | 480 kts | 61° |
| 2026-05-06 14:53 | 32.55965 | -64.19875 | 37135 ft | 480 kts | 60° |
| 2026-05-06 14:53 | 32.58771 | -64.12758 | 37133 ft | 480 kts | 61° |
| 2026-05-06 14:54 | 32.61601 | -64.05567 | 37133 ft | 480 kts | 61° |
| 2026-05-06 14:54 | 32.64411 | -63.98410 | 37133 ft | 481 kts | 61° |
| 2026-05-06 14:55 | 32.67223 | -63.91237 | 37126 ft | 481 kts | 62° |
| 2026-05-06 14:55 | 32.70027 | -63.84064 | 37129 ft | 482 kts | 62° |
| 2026-05-06 14:56 | 32.72847 | -63.76838 | 37125 ft | 484 kts | 62° |
| 2026-05-06 14:56 | 32.75661 | -63.69611 | 37120 ft | 485 kts | 62° |
| 2026-05-06 14:57 | 32.78486 | -63.62341 | 37120 ft | 486 kts | 62° |
| 2026-05-06 14:57 | 32.81300 | -63.55082 | 37119 ft | 487 kts | 63° |
| 2026-05-06 14:58 | 32.84116 | -63.47800 | 37122 ft | 488 kts | 62° |
| 2026-05-06 14:58 | 32.86948 | -63.40469 | 37119 ft | 488 kts | 63° |
| 2026-05-06 14:59 | 32.89760 | -63.33170 | 37117 ft | 489 kts | 64° |
| 2026-05-06 14:59 | 32.92583 | -63.25828 | 37116 ft | 488 kts | 64° |
| 2026-05-06 15:00 | 32.95395 | -63.18496 | 37121 ft | 489 kts | 64° |
| 2026-05-06 15:00 | 32.98210 | -63.11142 | 37115 ft | 488 kts | 64° |
| 2026-05-06 15:01 | 33.01007 | -63.03820 | 37125 ft | 488 kts | 64° |
| 2026-05-06 15:01 | 33.03810 | -62.96471 | 37107 ft | 489 kts | 65° |
| 2026-05-06 15:02 | 33.06598 | -62.89137 | 37117 ft | 490 kts | 65° |
| 2026-05-06 15:02 | 33.09406 | -62.81735 | 37111 ft | 491 kts | 65° |
| 2026-05-06 15:03 | 33.12209 | -62.74326 | 37106 ft | 492 kts | 65° |
| 2026-05-06 15:03 | 33.15011 | -62.66914 | 37098 ft | 493 kts | 65° |
| 2026-05-06 15:04 | 33.17829 | -62.59441 | 37097 ft | 494 kts | 65° |
| 2026-05-06 15:04 | 33.20635 | -62.51976 | 37095 ft | 494 kts | 65° |
| 2026-05-06 15:05 | 33.23432 | -62.44528 | 37093 ft | 495 kts | 66° |
| 2026-05-06 15:05 | 33.26232 | -62.37049 | 37096 ft | 495 kts | 66° |
| 2026-05-06 15:06 | 33.29040 | -62.29536 | 37086 ft | 496 kts | 67° |
| 2026-05-06 15:06 | 33.31843 | -62.22018 | 37079 ft | 496 kts | 67° |
| 2026-05-06 15:07 | 33.34631 | -62.14522 | 37072 ft | 497 kts | 67° |
| 2026-05-06 15:07 | 33.37426 | -62.06982 | 37072 ft | 497 kts | 68° |
| 2026-05-06 15:08 | 33.40216 | -61.99442 | 37071 ft | 496 kts | 68° |
| 2026-05-06 15:08 | 33.42989 | -61.91937 | 37084 ft | 497 kts | 68° |
| 2026-05-06 15:09 | 33.45786 | -61.84352 | 37077 ft | 499 kts | 68° |
| 2026-05-06 15:09 | 33.48565 | -61.76784 | 37064 ft | 501 kts | 68° |
| 2026-05-06 15:10 | 33.51375 | -61.69133 | 37055 ft | 502 kts | 68° |
| 2026-05-06 15:10 | 33.54164 | -61.61497 | 37065 ft | 501 kts | 69° |
| 2026-05-06 15:11 | 33.56936 | -61.53908 | 37065 ft | 501 kts | 69° |
| 2026-05-06 15:11 | 33.59816 | -61.46248 | 37059 ft | 504 kts | 68° |
| 2026-05-06 15:12 | 33.62896 | -61.38701 | 37061 ft | 506 kts | 67° |
| 2026-05-06 15:12 | 33.65997 | -61.31148 | 37052 ft | 507 kts | 68° |
| 2026-05-06 15:13 | 33.69077 | -61.23604 | 37051 ft | 508 kts | 68° |
| 2026-05-06 15:13 | 33.72167 | -61.15997 | 37057 ft | 507 kts | 69° |
| 2026-05-06 15:14 | 33.75252 | -61.08395 | 37058 ft | 508 kts | 69° |
| 2026-05-06 15:14 | 33.78326 | -61.00793 | 37047 ft | 507 kts | 70° |
| 2026-05-06 15:15 | 33.81402 | -60.93155 | 37055 ft | 507 kts | 69° |
| 2026-05-06 15:15 | 33.84468 | -60.85538 | 37051 ft | 507 kts | 70° |
| 2026-05-06 15:16 | 33.87503 | -60.77978 | 37058 ft | 507 kts | 70° |
| 2026-05-06 15:16 | 33.90563 | -60.70333 | 37064 ft | 508 kts | 70° |
| 2026-05-06 15:17 | 33.93624 | -60.62678 | 37043 ft | 508 kts | 70° |
| 2026-05-06 15:17 | 33.96698 | -60.54973 | 37058 ft | 509 kts | 71° |
| 2026-05-06 15:18 | 33.99743 | -60.47318 | 37060 ft | 509 kts | 70° |
| 2026-05-06 15:18 | 34.02788 | -60.39646 | 37049 ft | 510 kts | 71° |
| 2026-05-06 15:19 | 34.05843 | -60.31938 | 37049 ft | 510 kts | 71° |
| 2026-05-06 15:19 | 34.08876 | -60.24272 | 37068 ft | 509 kts | 72° |
| 2026-05-06 15:20 | 34.11923 | -60.16539 | 37047 ft | 511 kts | 72° |
| 2026-05-06 15:20 | 34.14949 | -60.08853 | 37063 ft | 511 kts | 72° |
| 2026-05-06 15:21 | 34.17981 | -60.01134 | 37066 ft | 511 kts | 72° |
| 2026-05-06 15:21 | 34.21026 | -59.93353 | 37055 ft | 511 kts | 72° |
| 2026-05-06 15:22 | 34.24041 | -59.85631 | 37060 ft | 511 kts | 72° |
| 2026-05-06 15:22 | 34.27053 | -59.77906 | 37051 ft | 510 kts | 72° |
| 2026-05-06 15:23 | 34.30061 | -59.70179 | 37053 ft | 511 kts | 72° |
| 2026-05-06 15:23 | 34.33082 | -59.62386 | 37052 ft | 511 kts | 72° |
| 2026-05-06 15:24 | 34.36069 | -59.54675 | 37042 ft | 509 kts | 72° |
| 2026-05-06 15:24 | 34.39056 | -59.46938 | 37038 ft | 510 kts | 72° |
| 2026-05-06 15:25 | 34.42046 | -59.39182 | 37040 ft | 510 kts | 72° |
| 2026-05-06 15:25 | 34.45035 | -59.31416 | 37040 ft | 508 kts | 73° |
| 2026-05-06 15:26 | 34.47989 | -59.23707 | 37040 ft | 508 kts | 72° |
| 2026-05-06 15:26 | 34.50960 | -59.15941 | 37037 ft | 508 kts | 72° |
| 2026-05-06 15:27 | 34.53926 | -59.08169 | 37037 ft | 509 kts | 72° |
| 2026-05-06 15:27 | 34.56873 | -59.00435 | 37037 ft | 508 kts | 72° |
| 2026-05-06 15:28 | 34.59833 | -58.92641 | 37049 ft | 508 kts | 72° |
| 2026-05-06 15:28 | 34.62764 | -58.84903 | 37042 ft | 509 kts | 72° |
| 2026-05-06 15:29 | 34.65713 | -58.77107 | 37052 ft | 509 kts | 72° |
| 2026-05-06 15:29 | 34.68652 | -58.69319 | 37052 ft | 508 kts | 72° |
| 2026-05-06 15:30 | 34.71583 | -58.61533 | 37067 ft | 508 kts | 71° |
| 2026-05-06 15:30 | 34.74511 | -58.53726 | 37063 ft | 509 kts | 71° |
| 2026-05-06 15:31 | 34.77427 | -58.45944 | 37056 ft | 508 kts | 71° |
| 2026-05-06 15:31 | 34.80341 | -58.38142 | 37056 ft | 508 kts | 71° |
| 2026-05-06 15:32 | 34.84708 | -58.26425 | 37051 ft | 505 kts | 72° |
| 2026-05-06 15:32 | 34.87575 | -58.18706 | 37049 ft | 506 kts | 72° |
| 2026-05-06 15:33 | 34.90463 | -58.10899 | 37051 ft | 507 kts | 71° |
| 2026-05-06 15:33 | 34.93357 | -58.03077 | 37050 ft | 505 kts | 72° |
| 2026-05-06 15:34 | 34.96217 | -57.95320 | 37044 ft | 506 kts | 71° |
| 2026-05-06 15:34 | 34.99103 | -57.87461 | 37058 ft | 507 kts | 71° |
| 2026-05-06 15:35 | 35.01974 | -57.79636 | 37063 ft | 508 kts | 71° |
| 2026-05-06 15:35 | 35.04840 | -57.71805 | 37064 ft | 507 kts | 71° |
| 2026-05-06 15:36 | 35.07716 | -57.63927 | 37075 ft | 507 kts | 71° |
| 2026-05-06 15:36 | 35.10561 | -57.56123 | 37072 ft | 507 kts | 71° |
| 2026-05-06 15:37 | 35.13410 | -57.48275 | 37083 ft | 507 kts | 71° |
| 2026-05-06 15:37 | 35.16275 | -57.40353 | 37084 ft | 511 kts | 71° |
| 2026-05-06 15:38 | 35.19133 | -57.32453 | 37094 ft | 510 kts | 71° |
| 2026-05-06 15:38 | 35.21978 | -57.24573 | 37096 ft | 510 kts | 71° |
| 2026-05-06 15:39 | 35.24834 | -57.16633 | 37101 ft | 510 kts | 71° |
| 2026-05-06 15:39 | 35.27660 | -57.08760 | 37109 ft | 509 kts | 71° |
| 2026-05-06 15:40 | 35.30506 | -57.00803 | 37108 ft | 510 kts | 71° |
| 2026-05-06 15:40 | 35.33325 | -56.92892 | 37113 ft | 510 kts | 71° |
| 2026-05-06 15:41 | 35.36153 | -56.84954 | 37115 ft | 510 kts | 71° |
| 2026-05-06 15:41 | 35.38964 | -56.77042 | 37119 ft | 510 kts | 70° |
| 2026-05-06 15:42 | 35.41780 | -56.69081 | 37124 ft | 511 kts | 70° |
| 2026-05-06 15:42 | 35.44607 | -56.61098 | 37121 ft | 511 kts | 70° |
| 2026-05-06 15:43 | 35.47427 | -56.53098 | 37128 ft | 512 kts | 70° |
| 2026-05-06 15:43 | 35.50236 | -56.45102 | 37128 ft | 511 kts | 70° |
| 2026-05-06 15:44 | 35.53028 | -56.37135 | 37132 ft | 514 kts | 70° |
| 2026-05-06 15:44 | 35.55840 | -56.29104 | 37133 ft | 513 kts | 71° |
| 2026-05-06 15:45 | 35.58639 | -56.21070 | 37140 ft | 512 kts | 70° |
| 2026-05-06 15:45 | 35.61422 | -56.13072 | 37143 ft | 513 kts | 70° |
| 2026-05-06 15:46 | 35.64214 | -56.05019 | 37147 ft | 515 kts | 70° |
| 2026-05-06 15:46 | 35.67010 | -55.96951 | 37148 ft | 514 kts | 70° |
| 2026-05-06 15:47 | 35.69799 | -55.88878 | 37153 ft | 514 kts | 70° |
| 2026-05-06 15:47 | 35.72572 | -55.80810 | 37147 ft | 514 kts | 70° |
| 2026-05-06 15:48 | 35.75360 | -55.72689 | 37149 ft | 515 kts | 70° |
| 2026-05-06 15:48 | 35.78126 | -55.64620 | 37154 ft | 514 kts | 70° |
| 2026-05-06 15:49 | 35.80897 | -55.56500 | 37158 ft | 516 kts | 70° |
| 2026-05-06 15:49 | 35.83681 | -55.48327 | 37167 ft | 517 kts | 70° |
| 2026-05-06 15:50 | 35.86449 | -55.40179 | 37173 ft | 517 kts | 69° |
| 2026-05-06 15:50 | 35.89205 | -55.32052 | 37170 ft | 518 kts | 71° |
| 2026-05-06 15:51 | 35.91972 | -55.23876 | 37177 ft | 517 kts | 70° |
| 2026-05-06 15:51 | 35.94725 | -55.15694 | 37183 ft | 518 kts | 71° |
| 2026-05-06 15:52 | 35.97480 | -55.07500 | 37190 ft | 519 kts | 71° |
| 2026-05-06 15:52 | 36.00312 | -54.99340 | 37190 ft | 522 kts | 67° |
| 2026-05-06 15:53 | 36.03585 | -54.91539 | 37195 ft | 522 kts | 64° |
| 2026-05-06 15:53 | 36.07004 | -54.83661 | 37195 ft | 524 kts | 64° |
| 2026-05-06 15:54 | 36.10413 | -54.75771 | 37201 ft | 522 kts | 64° |
| 2026-05-06 15:54 | 36.13809 | -54.67844 | 37202 ft | 523 kts | 64° |
| 2026-05-06 15:55 | 36.17213 | -54.59877 | 37200 ft | 522 kts | 64° |
| 2026-05-06 15:55 | 36.20575 | -54.51993 | 37203 ft | 522 kts | 64° |
| 2026-05-06 15:56 | 36.23944 | -54.44062 | 37207 ft | 522 kts | 63° |
| 2026-05-06 15:56 | 36.27327 | -54.36076 | 37211 ft | 523 kts | 63° |
| 2026-05-06 15:57 | 36.30675 | -54.28173 | 37208 ft | 521 kts | 64° |
| 2026-05-06 15:57 | 36.34047 | -54.20188 | 37215 ft | 522 kts | 63° |
| 2026-05-06 15:58 | 36.37382 | -54.12262 | 37212 ft | 523 kts | 64° |
| 2026-05-06 15:58 | 36.40739 | -54.04267 | 37217 ft | 523 kts | 64° |
| 2026-05-06 15:59 | 36.44103 | -53.96244 | 37216 ft | 523 kts | 64° |
| 2026-05-06 15:59 | 36.47421 | -53.88301 | 37223 ft | 523 kts | 63° |
| 2026-05-06 16:00 | 36.50761 | -53.80285 | 37218 ft | 523 kts | 63° |
| 2026-05-06 16:00 | 36.54108 | -53.72239 | 37226 ft | 524 kts | 63° |
| 2026-05-06 16:01 | 36.57447 | -53.64191 | 37236 ft | 524 kts | 63° |
| 2026-05-06 16:01 | 36.60768 | -53.56162 | 37236 ft | 524 kts | 63° |
| 2026-05-06 16:02 | 36.64088 | -53.48120 | 37246 ft | 525 kts | 63° |
| 2026-05-06 16:02 | 36.67409 | -53.40062 | 37249 ft | 526 kts | 63° |
| 2026-05-06 16:03 | 36.70728 | -53.31974 | 37243 ft | 527 kts | 63° |
| 2026-05-06 16:03 | 36.74048 | -53.23877 | 37254 ft | 526 kts | 64° |
| 2026-05-06 16:04 | 36.77369 | -53.15754 | 37257 ft | 526 kts | 63° |
| 2026-05-06 16:04 | 36.80661 | -53.07667 | 37260 ft | 528 kts | 64° |
| 2026-05-06 16:05 | 36.83992 | -52.99483 | 37269 ft | 529 kts | 63° |
| 2026-05-06 16:05 | 36.87287 | -52.91352 | 37270 ft | 529 kts | 63° |
| 2026-05-06 16:06 | 36.90609 | -52.83144 | 37280 ft | 530 kts | 63° |
| 2026-05-06 16:06 | 36.93901 | -52.74992 | 37281 ft | 530 kts | 63° |
| 2026-05-06 16:07 | 36.97205 | -52.66787 | 37286 ft | 529 kts | 63° |
| 2026-05-06 16:07 | 37.00504 | -52.58557 | 37288 ft | 528 kts | 63° |
| 2026-05-06 16:08 | 37.03767 | -52.50413 | 37284 ft | 528 kts | 63° |
| 2026-05-06 16:08 | 37.07034 | -52.42233 | 37300 ft | 527 kts | 62° |
| 2026-05-06 16:09 | 37.10309 | -52.34007 | 37300 ft | 527 kts | 63° |
| 2026-05-06 16:09 | 37.13541 | -52.25876 | 37298 ft | 525 kts | 64° |
| 2026-05-06 16:10 | 37.16798 | -52.17653 | 37290 ft | 526 kts | 64° |
| 2026-05-06 16:10 | 37.20009 | -52.09520 | 37289 ft | 526 kts | 63° |
| 2026-05-06 16:11 | 37.23250 | -52.01297 | 37290 ft | 526 kts | 63° |
| 2026-05-06 16:11 | 37.26465 | -51.93124 | 37290 ft | 526 kts | 64° |
| 2026-05-06 16:12 | 37.29694 | -51.84892 | 37286 ft | 526 kts | 63° |
| 2026-05-06 16:12 | 37.32926 | -51.76631 | 37283 ft | 527 kts | 62° |
| 2026-05-06 16:13 | 37.36131 | -51.68425 | 37293 ft | 527 kts | 63° |
| 2026-05-06 16:13 | 37.39356 | -51.60137 | 37302 ft | 528 kts | 63° |
| 2026-05-06 16:14 | 37.42553 | -51.51895 | 37300 ft | 529 kts | 63° |
| 2026-05-06 16:14 | 37.45763 | -51.43597 | 37305 ft | 530 kts | 63° |
| 2026-05-06 16:15 | 37.48962 | -51.35311 | 37310 ft | 528 kts | 63° |
| 2026-05-06 16:15 | 37.52161 | -51.26999 | 37313 ft | 529 kts | 63° |
| 2026-05-06 16:16 | 37.55368 | -51.18647 | 37316 ft | 531 kts | 63° |
| 2026-05-06 16:16 | 37.58557 | -51.10323 | 37317 ft | 530 kts | 63° |
| 2026-05-06 16:17 | 37.61744 | -51.01979 | 37335 ft | 531 kts | 63° |
| 2026-05-06 16:17 | 37.64927 | -50.93610 | 37330 ft | 531 kts | 63° |
| 2026-05-06 16:18 | 37.68103 | -50.85251 | 37329 ft | 530 kts | 63° |
| 2026-05-06 16:18 | 37.71278 | -50.76871 | 37334 ft | 530 kts | 63° |
| 2026-05-06 16:19 | 37.74448 | -50.68487 | 37331 ft | 532 kts | 62° |
| 2026-05-06 16:19 | 37.77623 | -50.60052 | 37338 ft | 530 kts | 63° |
| 2026-05-06 16:20 | 37.80771 | -50.51673 | 37336 ft | 531 kts | 63° |
| 2026-05-06 16:20 | 37.83926 | -50.43248 | 37335 ft | 530 kts | 62° |
| 2026-05-06 16:21 | 37.87056 | -50.34873 | 37332 ft | 531 kts | 63° |
| 2026-05-06 16:21 | 37.90202 | -50.26430 | 37321 ft | 531 kts | 63° |
| 2026-05-06 16:22 | 37.93336 | -50.17991 | 37330 ft | 531 kts | 62° |
| 2026-05-06 16:22 | 37.96455 | -50.09590 | 37353 ft | 531 kts | 63° |
| 2026-05-06 16:23 | 37.99513 | -50.01098 | 37369 ft | 533 kts | 65° |
| 2026-05-06 16:23 | 38.01979 | -49.92273 | 37385 ft | 533 kts | 71° |
| 2026-05-06 16:24 | 38.04167 | -49.83322 | 37379 ft | 533 kts | 72° |
| 2026-05-06 16:24 | 38.06358 | -49.74343 | 37383 ft | 534 kts | 72° |
| 2026-05-06 16:25 | 38.08564 | -49.65342 | 37373 ft | 533 kts | 71° |
| 2026-05-06 16:25 | 38.10754 | -49.56393 | 37375 ft | 533 kts | 71° |
| 2026-05-06 16:26 | 38.12935 | -49.47464 | 37374 ft | 534 kts | 71° |
| 2026-05-06 16:26 | 38.15132 | -49.38443 | 37382 ft | 534 kts | 70° |
| 2026-05-06 16:27 | 38.17310 | -49.29458 | 37387 ft | 534 kts | 72° |
| 2026-05-06 16:27 | 38.19472 | -49.20501 | 37389 ft | 534 kts | 71° |
| 2026-05-06 16:28 | 38.21643 | -49.11484 | 37391 ft | 535 kts | 72° |
| 2026-05-06 16:28 | 38.23800 | -49.02492 | 37408 ft | 533 kts | 71° |
| 2026-05-06 16:29 | 38.25945 | -48.93514 | 37393 ft | 534 kts | 71° |
| 2026-05-06 16:29 | 38.28099 | -48.84475 | 37384 ft | 533 kts | 71° |
| 2026-05-06 16:30 | 38.29870 | -48.77010 | 37393 ft | 533 kts | 71° |
| 2026-05-06 16:30 | 38.32346 | -48.66518 | 37393 ft | 534 kts | 71° |
| 2026-05-06 16:31 | 38.34479 | -48.57436 | 37398 ft | 533 kts | 70° |
| 2026-05-06 16:31 | 38.36580 | -48.48476 | 37390 ft | 534 kts | 71° |
| 2026-05-06 16:32 | 38.38694 | -48.39448 | 37383 ft | 535 kts | 71° |
| 2026-05-06 16:32 | 38.40799 | -48.30375 | 37398 ft | 535 kts | 71° |
| 2026-05-06 16:33 | 38.42903 | -48.21280 | 37395 ft | 533 kts | 71° |
| 2026-05-06 16:34 | 38.46031 | -48.07723 | 37402 ft | 533 kts | 71° |
| 2026-05-06 16:34 | 38.48097 | -47.98716 | 37386 ft | 533 kts | 71° |
| 2026-05-06 16:35 | 38.50166 | -47.89653 | 37403 ft | 533 kts | 70° |
| 2026-05-06 16:35 | 38.52234 | -47.80580 | 37398 ft | 534 kts | 71° |
| 2026-05-06 16:36 | 38.54295 | -47.71501 | 37398 ft | 535 kts | 71° |
| 2026-05-06 16:36 | 38.56345 | -47.62401 | 37409 ft | 534 kts | 70° |
| 2026-05-06 16:37 | 38.58383 | -47.53356 | 37401 ft | 534 kts | 70° |
| 2026-05-06 16:37 | 38.60422 | -47.44234 | 37408 ft | 534 kts | 70° |
| 2026-05-06 16:38 | 38.62448 | -47.35159 | 37409 ft | 534 kts | 70° |
| 2026-05-06 16:38 | 38.64477 | -47.26044 | 37422 ft | 534 kts | 70° |
| 2026-05-06 16:39 | 38.66485 | -47.16964 | 37427 ft | 534 kts | 70° |
| 2026-05-06 16:39 | 38.68499 | -47.07842 | 37419 ft | 534 kts | 71° |
| 2026-05-06 16:40 | 38.70501 | -46.98685 | 37429 ft | 533 kts | 70° |
| 2026-05-06 16:40 | 38.72493 | -46.89571 | 37432 ft | 533 kts | 70° |
| 2026-05-06 16:41 | 38.74471 | -46.80496 | 37420 ft | 532 kts | 70° |
| 2026-05-06 16:41 | 38.76447 | -46.71383 | 37418 ft | 534 kts | 70° |
| 2026-05-06 16:42 | 38.78415 | -46.62262 | 37412 ft | 534 kts | 70° |
| 2026-05-06 16:42 | 38.80384 | -46.53097 | 37414 ft | 533 kts | 70° |
| 2026-05-06 16:43 | 38.82330 | -46.44003 | 37417 ft | 532 kts | 70° |
| 2026-05-06 16:43 | 38.84286 | -46.34821 | 37419 ft | 532 kts | 71° |
| 2026-05-06 16:44 | 38.86224 | -46.25715 | 37423 ft | 532 kts | 70° |
| 2026-05-06 16:44 | 38.88141 | -46.16640 | 37410 ft | 531 kts | 71° |
| 2026-05-06 16:45 | 38.90064 | -46.07494 | 37415 ft | 532 kts | 70° |
| 2026-05-06 16:45 | 38.91990 | -45.98321 | 37418 ft | 532 kts | 70° |
| 2026-05-06 16:46 | 38.93878 | -45.89255 | 37419 ft | 529 kts | 69° |
| 2026-05-06 16:46 | 38.95784 | -45.80121 | 37425 ft | 531 kts | 70° |
| 2026-05-06 16:47 | 38.97671 | -45.71013 | 37427 ft | 532 kts | 70° |
| 2026-05-06 16:47 | 38.99556 | -45.61831 | 37419 ft | 531 kts | 69° |
| 2026-05-06 16:48 | 39.01426 | -45.52731 | 37433 ft | 530 kts | 70° |
| 2026-05-06 16:48 | 39.03299 | -45.43559 | 37438 ft | 531 kts | 69° |
| 2026-05-06 16:49 | 39.05168 | -45.34378 | 37439 ft | 531 kts | 70° |
| 2026-05-06 16:49 | 39.07019 | -45.25247 | 37442 ft | 533 kts | 71° |
| 2026-05-06 16:50 | 39.08866 | -45.16052 | 37442 ft | 531 kts | 70° |
| 2026-05-06 16:50 | 39.10712 | -45.06882 | 37442 ft | 533 kts | 70° |
| 2026-05-06 16:51 | 39.12558 | -44.97639 | 37439 ft | 534 kts | 69° |
| 2026-05-06 16:51 | 39.14391 | -44.88418 | 37432 ft | 533 kts | 69° |
| 2026-05-06 16:52 | 39.16206 | -44.79234 | 37432 ft | 531 kts | 69° |
| 2026-05-06 16:52 | 39.18024 | -44.70041 | 37431 ft | 534 kts | 69° |
| 2026-05-06 16:53 | 39.19841 | -44.60793 | 37432 ft | 531 kts | 69° |
| 2026-05-06 16:53 | 39.21648 | -44.51561 | 37430 ft | 533 kts | 69° |
| 2026-05-06 16:54 | 39.23429 | -44.42374 | 37427 ft | 531 kts | 69° |
| 2026-05-06 16:54 | 39.25226 | -44.33128 | 37420 ft | 534 kts | 70° |
| 2026-05-06 16:55 | 39.27004 | -44.23895 | 37429 ft | 533 kts | 70° |
| 2026-05-06 16:55 | 39.28785 | -44.14617 | 37429 ft | 535 kts | 69° |
| 2026-05-06 16:56 | 39.30548 | -44.05363 | 37429 ft | 535 kts | 69° |
| 2026-05-06 16:56 | 39.32310 | -43.96092 | 37426 ft | 534 kts | 69° |
| 2026-05-06 16:57 | 39.34081 | -43.86756 | 37427 ft | 535 kts | 70° |
| 2026-05-06 16:57 | 39.35819 | -43.77493 | 37433 ft | 533 kts | 69° |
| 2026-05-06 16:58 | 39.37566 | -43.68164 | 37435 ft | 535 kts | 69° |
| 2026-05-06 16:58 | 39.39300 | -43.58875 | 37436 ft | 535 kts | 70° |
| 2026-05-06 16:59 | 39.41031 | -43.49548 | 37433 ft | 534 kts | 69° |
| 2026-05-06 16:59 | 39.42747 | -43.40267 | 37433 ft | 535 kts | 69° |
| 2026-05-06 17:00 | 39.44461 | -43.30959 | 37430 ft | 536 kts | 70° |
| 2026-05-06 17:00 | 39.46170 | -43.21602 | 37437 ft | 536 kts | 70° |
| 2026-05-06 17:01 | 39.47869 | -43.12265 | 37437 ft | 536 kts | 70° |
| 2026-05-06 17:01 | 39.49570 | -43.02871 | 37434 ft | 535 kts | 70° |
| 2026-05-06 17:02 | 39.51259 | -42.93505 | 37432 ft | 536 kts | 70° |
| 2026-05-06 17:02 | 39.52931 | -42.84190 | 37429 ft | 537 kts | 70° |
| 2026-05-06 17:03 | 39.54615 | -42.74764 | 37428 ft | 536 kts | 70° |
| 2026-05-06 17:03 | 39.56280 | -42.65408 | 37427 ft | 538 kts | 70° |
| 2026-05-06 17:04 | 39.57944 | -42.55968 | 37427 ft | 537 kts | 70° |
| 2026-05-06 17:04 | 39.59598 | -42.46579 | 37426 ft | 538 kts | 70° |
| 2026-05-06 17:05 | 39.61253 | -42.37116 | 37422 ft | 539 kts | 70° |
| 2026-05-06 17:05 | 39.62888 | -42.27719 | 37417 ft | 538 kts | 70° |
| 2026-05-06 17:06 | 39.64516 | -42.18299 | 37419 ft | 539 kts | 70° |
| 2026-05-06 17:06 | 39.66142 | -42.08852 | 37419 ft | 538 kts | 70° |
| 2026-05-06 17:07 | 39.67765 | -41.99393 | 37417 ft | 537 kts | 70° |
| 2026-05-06 17:07 | 39.69375 | -41.89978 | 37422 ft | 539 kts | 69° |
| 2026-05-06 17:08 | 39.70981 | -41.80500 | 37420 ft | 538 kts | 69° |
| 2026-05-06 17:08 | 39.72581 | -41.71045 | 37420 ft | 539 kts | 70° |
| 2026-05-06 17:09 | 39.74171 | -41.61539 | 37420 ft | 540 kts | 69° |
| 2026-05-06 17:09 | 39.75745 | -41.52119 | 37427 ft | 540 kts | 69° |
| 2026-05-06 17:10 | 39.77324 | -41.42588 | 37422 ft | 540 kts | 69° |
| 2026-05-06 17:10 | 39.78893 | -41.33114 | 37413 ft | 541 kts | 71° |
| 2026-05-06 17:11 | 39.80461 | -41.23577 | 37412 ft | 543 kts | 70° |
| 2026-05-06 17:11 | 39.82026 | -41.13995 | 37404 ft | 543 kts | 70° |
| 2026-05-06 17:12 | 39.83577 | -41.04419 | 37402 ft | 543 kts | 70° |
| 2026-05-06 17:12 | 39.85122 | -40.94860 | 37399 ft | 543 kts | 70° |
| 2026-05-06 17:13 | 39.86663 | -40.85275 | 37400 ft | 543 kts | 70° |
| 2026-05-06 17:13 | 39.88194 | -40.75691 | 37407 ft | 543 kts | 70° |
| 2026-05-06 17:14 | 39.89720 | -40.66080 | 37407 ft | 544 kts | 70° |
| 2026-05-06 17:14 | 39.91237 | -40.56470 | 37411 ft | 544 kts | 69° |
| 2026-05-06 17:15 | 39.92746 | -40.46884 | 37404 ft | 545 kts | 70° |
| 2026-05-06 17:15 | 39.94252 | -40.37230 | 37405 ft | 545 kts | 70° |
| 2026-05-06 17:16 | 39.95758 | -40.27551 | 37399 ft | 546 kts | 70° |
| 2026-05-06 17:16 | 39.97246 | -40.17919 | 37401 ft | 547 kts | 69° |
| 2026-05-06 17:17 | 39.98729 | -40.08257 | 37398 ft | 546 kts | 70° |
| 2026-05-06 17:17 | 40.00204 | -39.98562 | 37394 ft | 546 kts | 70° |
| 2026-05-06 17:18 | 40.01608 | -39.88907 | 37396 ft | 546 kts | 70° |
| 2026-05-06 17:18 | 40.03000 | -39.79162 | 37388 ft | 546 kts | 70° |
| 2026-05-06 17:19 | 40.04375 | -39.69490 | 37384 ft | 545 kts | 70° |
| 2026-05-06 17:19 | 40.05743 | -39.59819 | 37390 ft | 545 kts | 71° |
| 2026-05-06 17:20 | 40.07112 | -39.50109 | 37374 ft | 544 kts | 71° |
| 2026-05-06 17:20 | 40.08467 | -39.40416 | 37379 ft | 545 kts | 70° |
| 2026-05-06 17:21 | 40.09808 | -39.30787 | 37378 ft | 544 kts | 71° |
| 2026-05-06 17:21 | 40.11151 | -39.21070 | 37387 ft | 542 kts | 72° |
| 2026-05-06 17:21 | 40.11812 | -39.16285 | 37187 ft | 542 kts | 71° |
| 2026-05-06 17:22 | 40.12474 | -39.11440 | 37318 ft | 542 kts | 71° |
| 2026-05-06 17:22 | 40.13788 | -39.01791 | 37370 ft | 541 kts | 71° |
| 2026-05-06 17:23 | 40.15102 | -38.92143 | 37379 ft | 542 kts | 72° |
| 2026-05-06 17:23 | 40.16402 | -38.82484 | 37366 ft | 540 kts | 71° |
| 2026-05-06 17:24 | 40.17687 | -38.72875 | 37356 ft | 539 kts | 71° |
| 2026-05-06 17:24 | 40.18964 | -38.63268 | 37369 ft | 537 kts | 71° |
| 2026-05-06 17:25 | 40.20229 | -38.53697 | 37357 ft | 536 kts | 72° |
| 2026-05-06 17:25 | 40.21490 | -38.44112 | 37347 ft | 536 kts | 72° |
| 2026-05-06 17:26 | 40.22743 | -38.34520 | 37361 ft | 538 kts | 72° |
| 2026-05-06 17:26 | 40.23980 | -38.24922 | 37338 ft | 536 kts | 72° |
| 2026-05-06 17:27 | 40.25217 | -38.15332 | 37336 ft | 536 kts | 72° |
| 2026-05-06 17:27 | 40.26436 | -38.05764 | 37347 ft | 534 kts | 72° |
| 2026-05-06 17:28 | 40.27649 | -37.96229 | 37330 ft | 535 kts | 72° |
| 2026-05-06 17:28 | 40.28861 | -37.86624 | 37346 ft | 535 kts | 72° |
| 2026-05-06 17:29 | 40.30046 | -37.77129 | 37351 ft | 533 kts | 72° |
| 2026-05-06 17:29 | 40.31237 | -37.67551 | 37336 ft | 533 kts | 72° |
| 2026-05-06 17:30 | 40.32419 | -37.57991 | 37341 ft | 532 kts | 73° |
| 2026-05-06 17:30 | 40.33573 | -37.48528 | 37338 ft | 529 kts | 73° |
| 2026-05-06 17:31 | 40.34736 | -37.39008 | 37332 ft | 530 kts | 73° |
| 2026-05-06 17:31 | 40.35886 | -37.29511 | 37332 ft | 529 kts | 73° |
| 2026-05-06 17:32 | 40.37017 | -37.20063 | 37336 ft | 529 kts | 74° |
| 2026-05-06 17:32 | 40.38150 | -37.10552 | 37339 ft | 529 kts | 73° |
| 2026-05-06 17:33 | 40.39272 | -37.01059 | 37332 ft | 528 kts | 74° |
| 2026-05-06 17:33 | 40.40385 | -36.91580 | 37326 ft | 527 kts | 73° |
| 2026-05-06 17:34 | 40.41489 | -36.82127 | 37323 ft | 526 kts | 74° |
| 2026-05-06 17:34 | 40.42583 | -36.72687 | 37318 ft | 526 kts | 74° |
| 2026-05-06 17:35 | 40.43659 | -36.63285 | 37315 ft | 523 kts | 74° |
| 2026-05-06 17:35 | 40.44732 | -36.53872 | 37324 ft | 524 kts | 74° |
| 2026-05-06 17:36 | 40.46331 | -36.39731 | 37299 ft | 522 kts | 74° |
| 2026-05-06 17:36 | 40.47380 | -36.30365 | 37284 ft | 522 kts | 75° |
| 2026-05-06 17:37 | 40.48418 | -36.20990 | 37288 ft | 521 kts | 75° |
| 2026-05-06 17:37 | 40.49458 | -36.11563 | 37273 ft | 521 kts | 75° |
| 2026-05-06 17:38 | 40.50485 | -36.02189 | 37268 ft | 521 kts | 75° |
| 2026-05-06 17:38 | 40.51497 | -35.92846 | 37273 ft | 520 kts | 75° |
| 2026-05-06 17:39 | 40.52505 | -35.83492 | 37274 ft | 519 kts | 75° |
| 2026-05-06 17:39 | 40.53502 | -35.74153 | 37276 ft | 518 kts | 76° |
| 2026-05-06 17:40 | 40.54494 | -35.64788 | 37275 ft | 517 kts | 76° |
| 2026-05-06 17:40 | 40.55477 | -35.55431 | 37274 ft | 516 kts | 76° |
| 2026-05-06 17:41 | 40.56449 | -35.46149 | 37274 ft | 517 kts | 76° |
| 2026-05-06 17:41 | 40.57412 | -35.36854 | 37273 ft | 516 kts | 76° |
| 2026-05-06 17:42 | 40.58367 | -35.27537 | 37257 ft | 515 kts | 77° |
| 2026-05-06 17:42 | 40.59313 | -35.18243 | 37264 ft | 515 kts | 77° |
| 2026-05-06 17:43 | 40.60258 | -35.08872 | 37255 ft | 515 kts | 77° |
| 2026-05-06 17:43 | 40.61185 | -34.99609 | 37261 ft | 514 kts | 77° |
| 2026-05-06 17:44 | 40.62112 | -34.90319 | 37257 ft | 515 kts | 77° |
| 2026-05-06 17:44 | 40.63026 | -34.81027 | 37257 ft | 513 kts | 78° |
| 2026-05-06 17:45 | 40.63938 | -34.71689 | 37249 ft | 515 kts | 77° |
| 2026-05-06 17:45 | 40.64838 | -34.62404 | 37239 ft | 515 kts | 77° |
| 2026-05-06 17:46 | 40.65736 | -34.53056 | 37240 ft | 515 kts | 77° |
| 2026-05-06 17:46 | 40.66625 | -34.43725 | 37231 ft | 516 kts | 78° |
| 2026-05-06 17:47 | 40.67504 | -34.34383 | 37234 ft | 515 kts | 78° |
| 2026-05-06 17:47 | 40.68377 | -34.25095 | 37236 ft | 515 kts | 79° |
| 2026-05-06 17:48 | 40.69246 | -34.15721 | 37212 ft | 517 kts | 79° |
| 2026-05-06 17:48 | 40.70106 | -34.06341 | 37225 ft | 518 kts | 78° |
| 2026-05-06 17:49 | 40.70954 | -33.97002 | 37221 ft | 517 kts | 78° |
| 2026-05-06 17:49 | 40.71806 | -33.87605 | 37197 ft | 517 kts | 79° |
| 2026-05-06 17:50 | 40.72642 | -33.78230 | 37199 ft | 517 kts | 79° |
| 2026-05-06 17:50 | 40.73471 | -33.68833 | 37189 ft | 517 kts | 79° |
| 2026-05-06 17:51 | 40.74296 | -33.59454 | 37199 ft | 518 kts | 79° |
| 2026-05-06 17:51 | 40.75107 | -33.50083 | 37196 ft | 518 kts | 79° |
| 2026-05-06 17:52 | 40.75921 | -33.40654 | 37207 ft | 519 kts | 79° |
| 2026-05-06 17:52 | 40.76724 | -33.31243 | 37206 ft | 519 kts | 80° |
| 2026-05-06 17:53 | 40.77522 | -33.21772 | 37189 ft | 519 kts | 80° |
| 2026-05-06 17:53 | 40.78310 | -33.12356 | 37196 ft | 519 kts | 81° |
| 2026-05-06 17:54 | 40.79087 | -33.02942 | 37198 ft | 518 kts | 81° |
| 2026-05-06 17:54 | 40.79855 | -32.93539 | 37189 ft | 517 kts | 80° |
| 2026-05-06 17:55 | 40.80620 | -32.84141 | 37197 ft | 518 kts | 81° |
| 2026-05-06 17:55 | 40.81378 | -32.74699 | 37190 ft | 519 kts | 81° |
| 2026-05-06 17:56 | 40.82126 | -32.65286 | 37195 ft | 518 kts | 81° |
| 2026-05-06 17:56 | 40.82862 | -32.55901 | 37192 ft | 517 kts | 81° |
| 2026-05-06 17:57 | 40.83592 | -32.46488 | 37184 ft | 517 kts | 81° |
| 2026-05-06 17:57 | 40.84315 | -32.37081 | 37186 ft | 517 kts | 81° |
| 2026-05-06 17:58 | 40.85030 | -32.27711 | 37183 ft | 516 kts | 82° |
| 2026-05-06 17:58 | 40.85738 | -32.18313 | 37179 ft | 517 kts | 82° |
| 2026-05-06 17:59 | 40.86436 | -32.08918 | 37178 ft | 516 kts | 82° |
| 2026-05-06 17:59 | 40.87130 | -31.99483 | 37174 ft | 516 kts | 82° |
| 2026-05-06 18:00 | 40.87814 | -31.90089 | 37179 ft | 516 kts | 82° |
| 2026-05-06 18:00 | 40.88488 | -31.80705 | 37177 ft | 516 kts | 82° |
| 2026-05-06 18:01 | 40.89157 | -31.71305 | 37164 ft | 516 kts | 82° |
| 2026-05-06 18:01 | 40.89818 | -31.61894 | 37169 ft | 516 kts | 83° |
| 2026-05-06 18:02 | 40.90474 | -31.52498 | 37165 ft | 516 kts | 83° |
| 2026-05-06 18:02 | 40.91118 | -31.43105 | 37164 ft | 516 kts | 83° |
| 2026-05-06 18:03 | 40.91758 | -31.33674 | 37158 ft | 517 kts | 84° |
| 2026-05-06 18:03 | 40.92388 | -31.24251 | 37157 ft | 518 kts | 84° |
| 2026-05-06 18:04 | 40.93015 | -31.14781 | 37153 ft | 517 kts | 84° |
| 2026-05-06 18:04 | 40.93628 | -31.05396 | 37147 ft | 517 kts | 84° |
| 2026-05-06 18:05 | 40.94239 | -30.95911 | 37139 ft | 517 kts | 84° |
| 2026-05-06 18:05 | 40.94841 | -30.86466 | 37137 ft | 518 kts | 84° |
| 2026-05-06 18:06 | 40.95433 | -30.77053 | 37131 ft | 518 kts | 84° |
| 2026-05-06 18:06 | 40.96019 | -30.67603 | 37128 ft | 518 kts | 84° |
| 2026-05-06 18:07 | 40.96597 | -30.58136 | 37112 ft | 517 kts | 84° |
| 2026-05-06 18:07 | 40.97169 | -30.48655 | 37104 ft | 516 kts | 84° |
| 2026-05-06 18:08 | 40.97732 | -30.39242 | 37102 ft | 516 kts | 84° |
| 2026-05-06 18:08 | 40.98288 | -30.29792 | 37099 ft | 517 kts | 85° |
| 2026-05-06 18:09 | 40.98833 | -30.20377 | 37095 ft | 514 kts | 85° |
| 2026-05-06 18:09 | 40.99372 | -30.10953 | 37092 ft | 514 kts | 85° |
| 2026-05-06 18:10 | 40.99898 | -30.01595 | 37094 ft | 514 kts | 86° |
| 2026-05-06 18:10 | 41.00350 | -29.92158 | 37101 ft | 514 kts | 87° |
| 2026-05-06 18:11 | 41.00667 | -29.84320 | 37089 ft | 514 kts | 87° |
| 2026-05-06 18:11 | 41.01099 | -29.73539 | 37092 ft | 514 kts | 87° |
| 2026-05-06 18:12 | 41.01481 | -29.64097 | 37086 ft | 514 kts | 87° |
| 2026-05-06 18:12 | 41.01856 | -29.54650 | 37088 ft | 514 kts | 87° |
| 2026-05-06 18:13 | 41.02221 | -29.45283 | 37093 ft | 515 kts | 87° |
| 2026-05-06 18:13 | 41.02583 | -29.35820 | 37084 ft | 515 kts | 87° |
| 2026-05-06 18:14 | 41.02934 | -29.26377 | 37077 ft | 515 kts | 88° |
| 2026-05-06 18:14 | 41.03277 | -29.17002 | 37078 ft | 514 kts | 88° |
| 2026-05-06 18:15 | 41.03613 | -29.07577 | 37079 ft | 515 kts | 88° |
| 2026-05-06 18:15 | 41.03944 | -28.98083 | 37078 ft | 514 kts | 88° |
| 2026-05-06 18:16 | 41.04265 | -28.88662 | 37091 ft | 514 kts | 88° |
| 2026-05-06 18:16 | 41.04577 | -28.79286 | 37084 ft | 514 kts | 88° |
| 2026-05-06 18:17 | 41.04882 | -28.69831 | 37093 ft | 514 kts | 88° |
| 2026-05-06 18:17 | 41.05179 | -28.60461 | 37094 ft | 513 kts | 88° |
| 2026-05-06 18:18 | 41.05470 | -28.51021 | 37098 ft | 513 kts | 88° |
| 2026-05-06 18:18 | 41.05750 | -28.41636 | 37092 ft | 513 kts | 88° |
| 2026-05-06 18:19 | 41.06023 | -28.32276 | 37096 ft | 512 kts | 89° |
| 2026-05-06 18:19 | 41.06291 | -28.22858 | 37106 ft | 512 kts | 89° |
| 2026-05-06 18:20 | 41.06549 | -28.13482 | 37095 ft | 511 kts | 89° |
| 2026-05-06 18:20 | 41.06800 | -28.04073 | 37123 ft | 511 kts | 89° |
| 2026-05-06 18:21 | 41.07044 | -27.94724 | 37111 ft | 510 kts | 89° |
| 2026-05-06 18:21 | 41.07278 | -27.85403 | 37113 ft | 510 kts | 89° |
| 2026-05-06 18:22 | 41.07502 | -27.76061 | 37106 ft | 510 kts | 89° |
| 2026-05-06 18:22 | 41.07725 | -27.66668 | 37126 ft | 510 kts | 89° |
| 2026-05-06 18:23 | 41.07934 | -27.57361 | 37110 ft | 510 kts | 89° |
| 2026-05-06 18:23 | 41.08139 | -27.48002 | 37116 ft | 510 kts | 89° |
| 2026-05-06 18:24 | 41.08335 | -27.38655 | 37103 ft | 509 kts | 89° |
| 2026-05-06 18:24 | 41.08526 | -27.29274 | 37114 ft | 510 kts | 90° |
| 2026-05-06 18:25 | 41.08707 | -27.19963 | 37102 ft | 510 kts | 90° |
| 2026-05-06 18:25 | 41.08882 | -27.10611 | 37108 ft | 510 kts | 90° |
| 2026-05-06 18:26 | 41.09048 | -27.01223 | 37114 ft | 510 kts | 90° |
| 2026-05-06 18:26 | 41.09206 | -26.91869 | 37120 ft | 510 kts | 90° |
| 2026-05-06 18:27 | 41.09356 | -26.82550 | 37120 ft | 510 kts | 90° |
| 2026-05-06 18:27 | 41.09502 | -26.73140 | 37130 ft | 509 kts | 90° |
| 2026-05-06 18:28 | 41.09637 | -26.63852 | 37119 ft | 509 kts | 90° |
| 2026-05-06 18:28 | 41.09766 | -26.54490 | 37119 ft | 509 kts | 90° |
| 2026-05-06 18:29 | 41.09886 | -26.45144 | 37126 ft | 509 kts | 90° |
| 2026-05-06 18:29 | 41.10000 | -26.35817 | 37115 ft | 508 kts | 90° |
| 2026-05-06 18:30 | 41.10106 | -26.26502 | 37117 ft | 508 kts | 91° |
| 2026-05-06 18:30 | 41.10204 | -26.17147 | 37118 ft | 508 kts | 91° |
| 2026-05-06 18:31 | 41.10294 | -26.07857 | 37116 ft | 509 kts | 91° |
| 2026-05-06 18:31 | 41.10378 | -25.98442 | 37118 ft | 509 kts | 91° |
| 2026-05-06 18:32 | 41.10451 | -25.89151 | 37114 ft | 510 kts | 91° |
| 2026-05-06 18:32 | 41.10522 | -25.79738 | 37114 ft | 510 kts | 91° |
| 2026-05-06 18:33 | 41.10583 | -25.70433 | 37121 ft | 510 kts | 91° |
| 2026-05-06 18:33 | 41.10638 | -25.61038 | 37117 ft | 510 kts | 91° |
| 2026-05-06 18:34 | 41.10683 | -25.51697 | 37121 ft | 509 kts | 90° |
| 2026-05-06 18:34 | 41.10719 | -25.42344 | 37120 ft | 510 kts | 90° |
| 2026-05-06 18:35 | 41.10751 | -25.32974 | 37118 ft | 510 kts | 91° |
| 2026-05-06 18:35 | 41.10775 | -25.23610 | 37126 ft | 511 kts | 91° |
| 2026-05-06 18:36 | 41.10788 | -25.14229 | 37129 ft | 512 kts | 91° |
| 2026-05-06 18:36 | 41.10796 | -25.04793 | 37129 ft | 511 kts | 91° |
| 2026-05-06 18:37 | 41.10799 | -24.96983 | 37134 ft | 511 kts | 91° |
| 2026-05-06 18:37 | 41.10790 | -24.86010 | 37130 ft | 511 kts | 91° |
| 2026-05-06 18:38 | 41.10773 | -24.76632 | 37125 ft | 511 kts | 91° |
| 2026-05-06 18:38 | 41.10748 | -24.67256 | 37131 ft | 512 kts | 90° |
| 2026-05-06 18:39 | 41.10719 | -24.57852 | 37128 ft | 512 kts | 90° |
| 2026-05-06 18:40 | 41.10663 | -24.43795 | 37131 ft | 512 kts | 90° |
| 2026-05-06 18:40 | 41.10611 | -24.34354 | 37131 ft | 513 kts | 91° |
| 2026-05-06 18:41 | 41.10554 | -24.24910 | 37123 ft | 513 kts | 91° |
| 2026-05-06 18:41 | 41.10489 | -24.15501 | 37131 ft | 514 kts | 91° |
| 2026-05-06 18:42 | 41.10416 | -24.06067 | 37127 ft | 514 kts | 90° |
| 2026-05-06 18:42 | 41.10334 | -23.96630 | 37125 ft | 514 kts | 91° |
| 2026-05-06 18:43 | 41.10249 | -23.87193 | 37133 ft | 514 kts | 91° |
| 2026-05-06 18:43 | 41.10151 | -23.77766 | 37139 ft | 514 kts | 90° |
| 2026-05-06 18:44 | 41.10048 | -23.68347 | 37134 ft | 514 kts | 90° |
| 2026-05-06 18:44 | 41.09935 | -23.58895 | 37126 ft | 513 kts | 90° |
| 2026-05-06 18:45 | 41.09817 | -23.49491 | 37129 ft | 513 kts | 90° |
| 2026-05-06 18:45 | 41.09694 | -23.40086 | 37122 ft | 513 kts | 90° |
| 2026-05-06 18:46 | 41.09556 | -23.30663 | 37115 ft | 512 kts | 90° |
| 2026-05-06 18:46 | 41.09416 | -23.21273 | 37121 ft | 513 kts | 91° |
| 2026-05-06 18:47 | 41.09266 | -23.11854 | 37116 ft | 514 kts | 90° |
| 2026-05-06 18:47 | 41.09110 | -23.02427 | 37112 ft | 513 kts | 90° |
| 2026-05-06 18:48 | 41.08943 | -22.92989 | 37118 ft | 513 kts | 90° |
| 2026-05-06 18:48 | 41.08769 | -22.83565 | 37112 ft | 513 kts | 90° |
| 2026-05-06 18:49 | 41.08589 | -22.74160 | 37112 ft | 514 kts | 90° |
| 2026-05-06 18:49 | 41.08402 | -22.64757 | 37109 ft | 513 kts | 90° |
| 2026-05-06 18:50 | 41.08211 | -22.55351 | 37112 ft | 513 kts | 90° |
| 2026-05-06 18:50 | 41.08006 | -22.45909 | 37112 ft | 514 kts | 90° |
| 2026-05-06 18:51 | 41.07795 | -22.36458 | 37110 ft | 513 kts | 90° |
| 2026-05-06 18:51 | 41.07576 | -22.27090 | 37108 ft | 513 kts | 90° |
| 2026-05-06 18:52 | 41.07352 | -22.17654 | 37111 ft | 514 kts | 91° |
| 2026-05-06 18:52 | 41.07114 | -22.08222 | 37109 ft | 513 kts | 90° |
| 2026-05-06 18:53 | 41.06874 | -21.98801 | 37112 ft | 513 kts | 90° |
| 2026-05-06 18:53 | 41.06624 | -21.89393 | 37110 ft | 513 kts | 90° |
| 2026-05-06 18:54 | 41.06369 | -21.80027 | 37110 ft | 513 kts | 90° |
| 2026-05-06 18:54 | 41.06102 | -21.70613 | 37111 ft | 512 kts | 90° |
| 2026-05-06 18:55 | 41.05832 | -21.61235 | 37108 ft | 512 kts | 90° |
| 2026-05-06 18:55 | 41.05555 | -21.51831 | 37110 ft | 513 kts | 90° |
| 2026-05-06 18:56 | 41.05267 | -21.42441 | 37111 ft | 512 kts | 90° |
| 2026-05-06 18:56 | 41.04969 | -21.33083 | 37109 ft | 512 kts | 90° |
| 2026-05-06 18:57 | 41.04668 | -21.23659 | 37109 ft | 512 kts | 90° |
| 2026-05-06 18:57 | 41.04359 | -21.14306 | 37109 ft | 513 kts | 90° |
| 2026-05-06 18:58 | 41.04042 | -21.04892 | 37109 ft | 513 kts | 90° |
| 2026-05-06 18:58 | 41.03715 | -20.95532 | 37107 ft | 511 kts | 90° |
| 2026-05-06 18:59 | 41.03383 | -20.86131 | 37105 ft | 511 kts | 90° |
| 2026-05-06 18:59 | 41.03047 | -20.76739 | 37095 ft | 512 kts | 90° |
| 2026-05-06 19:00 | 41.02698 | -20.67405 | 37105 ft | 512 kts | 89° |
| 2026-05-06 19:00 | 41.02345 | -20.58042 | 37104 ft | 512 kts | 89° |
| 2026-05-06 19:01 | 41.01983 | -20.48606 | 37237 ft | 519 kts | 89° |
| 2026-05-06 19:01 | 41.01796 | -20.43838 | 37454 ft | 521 kts | 90° |
| 2026-05-06 19:01 | 41.01604 | -20.39068 | 37763 ft | 522 kts | 89° |
| 2026-05-06 19:01 | 41.01411 | -20.34302 | 38161 ft | 520 kts | 90° |
| 2026-05-06 19:02 | 41.01221 | -20.29548 | 38529 ft | 519 kts | 90° |
| 2026-05-06 19:02 | 41.01028 | -20.24793 | 38853 ft | 519 kts | 90° |
| 2026-05-06 19:02 | 41.00833 | -20.20048 | 39091 ft | 519 kts | 90° |
| 2026-05-06 19:03 | 41.00436 | -20.10534 | 39106 ft | 519 kts | 89° |
| 2026-05-06 19:03 | 40.99887 | -20.01023 | 39104 ft | 521 kts | 94° |
| 2026-05-06 19:04 | 40.98555 | -19.91605 | 39118 ft | 523 kts | 100° |
| 2026-05-06 19:04 | 40.96878 | -19.82301 | 39114 ft | 521 kts | 101° |
| 2026-05-06 19:05 | 40.95195 | -19.72996 | 39116 ft | 521 kts | 100° |
| 2026-05-06 19:05 | 40.93527 | -19.63724 | 39116 ft | 520 kts | 100° |
| 2026-05-06 19:06 | 40.91863 | -19.54473 | 39119 ft | 519 kts | 100° |
| 2026-05-06 19:06 | 40.90197 | -19.45229 | 39115 ft | 519 kts | 100° |
| 2026-05-06 19:07 | 40.88513 | -19.35956 | 39114 ft | 519 kts | 100° |
| 2026-05-06 19:07 | 40.86834 | -19.26739 | 39121 ft | 519 kts | 100° |
| 2026-05-06 19:08 | 40.85144 | -19.17500 | 39118 ft | 519 kts | 100° |
| 2026-05-06 19:08 | 40.83447 | -19.08277 | 39115 ft | 518 kts | 101° |
| 2026-05-06 19:09 | 40.81750 | -18.99111 | 39113 ft | 517 kts | 100° |
| 2026-05-06 19:09 | 40.80049 | -18.89948 | 39109 ft | 517 kts | 101° |
| 2026-05-06 19:10 | 40.78337 | -18.80778 | 39114 ft | 517 kts | 100° |
| 2026-05-06 19:10 | 40.76615 | -18.71608 | 39108 ft | 516 kts | 100° |
| 2026-05-06 19:11 | 40.74893 | -18.62462 | 39106 ft | 516 kts | 101° |
| 2026-05-06 19:11 | 40.73166 | -18.53327 | 39101 ft | 515 kts | 101° |
| 2026-05-06 19:12 | 40.71430 | -18.44210 | 39101 ft | 515 kts | 101° |
| 2026-05-06 19:12 | 40.69692 | -18.35127 | 39096 ft | 514 kts | 101° |
| 2026-05-06 19:13 | 40.67939 | -18.25996 | 39094 ft | 514 kts | 101° |
| 2026-05-06 19:13 | 40.66190 | -18.16919 | 39093 ft | 515 kts | 101° |
| 2026-05-06 19:14 | 40.64418 | -18.07781 | 39090 ft | 514 kts | 101° |
| 2026-05-06 19:14 | 40.62649 | -17.98694 | 39090 ft | 515 kts | 101° |
| 2026-05-06 19:15 | 40.60871 | -17.89603 | 39092 ft | 515 kts | 101° |
| 2026-05-06 19:15 | 40.59096 | -17.80568 | 39091 ft | 515 kts | 101° |
| 2026-05-06 19:16 | 40.57293 | -17.71422 | 39091 ft | 516 kts | 101° |
| 2026-05-06 19:16 | 40.55497 | -17.62375 | 39090 ft | 515 kts | 101° |
| 2026-05-06 19:17 | 40.53695 | -17.53330 | 39094 ft | 515 kts | 101° |
| 2026-05-06 19:17 | 40.51878 | -17.44231 | 39096 ft | 516 kts | 101° |
| 2026-05-06 19:18 | 40.50052 | -17.35142 | 39087 ft | 517 kts | 101° |
| 2026-05-06 19:18 | 40.48215 | -17.26040 | 39087 ft | 518 kts | 101° |
| 2026-05-06 19:19 | 40.46374 | -17.16950 | 39091 ft | 519 kts | 101° |
| 2026-05-06 19:19 | 40.44524 | -17.07892 | 39094 ft | 517 kts | 101° |
| 2026-05-06 19:20 | 40.42670 | -16.98795 | 39078 ft | 517 kts | 101° |
| 2026-05-06 19:20 | 40.40800 | -16.89703 | 39087 ft | 517 kts | 101° |
| 2026-05-06 19:21 | 40.38934 | -16.80645 | 39058 ft | 519 kts | 101° |
| 2026-05-06 19:21 | 40.37040 | -16.71504 | 39049 ft | 519 kts | 101° |
| 2026-05-06 19:22 | 40.35146 | -16.62404 | 39078 ft | 519 kts | 101° |
| 2026-05-06 19:22 | 40.33251 | -16.53331 | 39069 ft | 520 kts | 101° |
| 2026-05-06 19:23 | 40.31342 | -16.44229 | 39055 ft | 520 kts | 101° |
| 2026-05-06 19:23 | 40.29427 | -16.35147 | 39077 ft | 521 kts | 101° |
| 2026-05-06 19:24 | 40.27499 | -16.26042 | 39081 ft | 521 kts | 101° |
| 2026-05-06 19:24 | 40.25567 | -16.16961 | 39090 ft | 521 kts | 101° |
| 2026-05-06 19:25 | 40.23625 | -16.07854 | 39067 ft | 521 kts | 101° |
| 2026-05-06 19:25 | 40.21667 | -15.98714 | 39078 ft | 522 kts | 101° |
| 2026-05-06 19:26 | 40.19705 | -15.89619 | 39050 ft | 522 kts | 101° |
| 2026-05-06 19:26 | 40.17750 | -15.80570 | 39045 ft | 520 kts | 101° |
| 2026-05-06 19:27 | 40.15780 | -15.71492 | 39058 ft | 519 kts | 101° |
| 2026-05-06 19:27 | 40.13806 | -15.62447 | 39037 ft | 519 kts | 101° |
| 2026-05-06 19:28 | 40.11833 | -15.53419 | 39048 ft | 519 kts | 101° |
| 2026-05-06 19:28 | 40.09848 | -15.44389 | 39041 ft | 518 kts | 101° |
| 2026-05-06 19:29 | 40.07865 | -15.35404 | 39054 ft | 519 kts | 101° |
| 2026-05-06 19:29 | 40.05878 | -15.26415 | 39022 ft | 519 kts | 102° |
| 2026-05-06 19:30 | 40.03880 | -15.17431 | 39031 ft | 518 kts | 101° |
| 2026-05-06 19:30 | 40.01873 | -15.08458 | 39036 ft | 516 kts | 101° |
| 2026-05-06 19:31 | 39.99858 | -14.99449 | 39012 ft | 518 kts | 101° |
| 2026-05-06 19:31 | 39.96812 | -14.86080 | 39035 ft | 515 kts | 102° |
| 2026-05-06 19:32 | 39.94774 | -14.77158 | 39027 ft | 513 kts | 101° |
| 2026-05-06 19:32 | 39.92738 | -14.68283 | 39021 ft | 512 kts | 101° |
| 2026-05-06 19:33 | 39.90708 | -14.59456 | 39031 ft | 511 kts | 101° |
| 2026-05-06 19:33 | 39.88674 | -14.50645 | 39042 ft | 511 kts | 101° |
| 2026-05-06 19:34 | 39.86620 | -14.41796 | 39030 ft | 511 kts | 101° |
| 2026-05-06 19:34 | 39.84580 | -14.33028 | 39024 ft | 509 kts | 102° |
| 2026-05-06 19:35 | 39.82528 | -14.24237 | 39027 ft | 509 kts | 102° |
| 2026-05-06 19:35 | 39.80471 | -14.15458 | 39047 ft | 509 kts | 102° |
| 2026-05-06 19:36 | 39.78412 | -14.06714 | 39026 ft | 508 kts | 102° |